<?xml version="1.0" encoding="UTF-8" standalone="no" ?>
<gpx xmlns="http://www.topografix.com/GPX/1/1" xmlns:xsi="http://www.w3.org/2001/XMLSchema-instance" xsi:schemaLocation="http://www.topografix.com/GPX/1/1 http://www.topografix.com/GPX/1/1/gpx.xsd" version="1.1" creator="VisuGPX - https://www.visugpx.com">
  <metadata>
    <name>Ermitage</name>
    <desc><![CDATA[Parcours d\'entraînement, de JP64]]></desc>
  </metadata>
  <trk>
    <name><![CDATA[Ermitage_1]]></name>
    <trkseg>
      <trkpt lat="43.16031" lon="-0.23676">
        <ele>271</ele>
        <time>2012-11-17T15:42:05Z</time>
      </trkpt>
      <trkpt lat="43.16025" lon="-0.23694">
        <ele>271</ele>
        <time>2012-11-17T15:42:10Z</time>
      </trkpt>
      <trkpt lat="43.16022" lon="-0.23697">
        <ele>270.9</ele>
        <time>2012-11-17T15:42:15Z</time>
      </trkpt>
      <trkpt lat="43.16021" lon="-0.23697">
        <ele>270.9</ele>
        <time>2012-11-17T15:42:20Z</time>
      </trkpt>
      <trkpt lat="43.16019" lon="-0.23698">
        <ele>270.9</ele>
        <time>2012-11-17T15:42:25Z</time>
      </trkpt>
      <trkpt lat="43.16018" lon="-0.23698">
        <ele>270.9</ele>
        <time>2012-11-17T15:42:30Z</time>
      </trkpt>
      <trkpt lat="43.16019" lon="-0.23698">
        <ele>270.9</ele>
        <time>2012-11-17T15:42:35Z</time>
      </trkpt>
      <trkpt lat="43.16019" lon="-0.23698">
        <ele>270.9</ele>
        <time>2012-11-17T15:42:40Z</time>
      </trkpt>
      <trkpt lat="43.16016" lon="-0.23708">
        <ele>270.7</ele>
        <time>2012-11-17T15:42:45Z</time>
      </trkpt>
      <trkpt lat="43.1601" lon="-0.23728">
        <ele>270.6</ele>
        <time>2012-11-17T15:42:50Z</time>
      </trkpt>
      <trkpt lat="43.16004" lon="-0.23749">
        <ele>270.8</ele>
        <time>2012-11-17T15:42:55Z</time>
      </trkpt>
      <trkpt lat="43.15997" lon="-0.23769">
        <ele>271</ele>
        <time>2012-11-17T15:43:00Z</time>
      </trkpt>
      <trkpt lat="43.15992" lon="-0.23788">
        <ele>271</ele>
        <time>2012-11-17T15:43:05Z</time>
      </trkpt>
      <trkpt lat="43.15987" lon="-0.23807">
        <ele>270.9</ele>
        <time>2012-11-17T15:43:10Z</time>
      </trkpt>
      <trkpt lat="43.15982" lon="-0.23827">
        <ele>270.2</ele>
        <time>2012-11-17T15:43:15Z</time>
      </trkpt>
      <trkpt lat="43.15975" lon="-0.23845">
        <ele>269.6</ele>
        <time>2012-11-17T15:43:20Z</time>
      </trkpt>
      <trkpt lat="43.15966" lon="-0.23864">
        <ele>269.4</ele>
        <time>2012-11-17T15:43:25Z</time>
      </trkpt>
      <trkpt lat="43.15958" lon="-0.2388">
        <ele>270.5</ele>
        <time>2012-11-17T15:43:30Z</time>
      </trkpt>
      <trkpt lat="43.15948" lon="-0.23895">
        <ele>271</ele>
        <time>2012-11-17T15:43:35Z</time>
      </trkpt>
      <trkpt lat="43.15934" lon="-0.23903">
        <ele>271</ele>
        <time>2012-11-17T15:43:40Z</time>
      </trkpt>
      <trkpt lat="43.1592" lon="-0.23904">
        <ele>271</ele>
        <time>2012-11-17T15:43:45Z</time>
      </trkpt>
      <trkpt lat="43.15905" lon="-0.23906">
        <ele>271</ele>
        <time>2012-11-17T15:43:50Z</time>
      </trkpt>
      <trkpt lat="43.15891" lon="-0.23908">
        <ele>271</ele>
        <time>2012-11-17T15:43:55Z</time>
      </trkpt>
      <trkpt lat="43.15877" lon="-0.23911">
        <ele>271.3</ele>
        <time>2012-11-17T15:44:00Z</time>
      </trkpt>
      <trkpt lat="43.15865" lon="-0.23913">
        <ele>271.8</ele>
        <time>2012-11-17T15:44:05Z</time>
      </trkpt>
      <trkpt lat="43.1585" lon="-0.23915">
        <ele>272</ele>
        <time>2012-11-17T15:44:10Z</time>
      </trkpt>
      <trkpt lat="43.15837" lon="-0.23914">
        <ele>272</ele>
        <time>2012-11-17T15:44:15Z</time>
      </trkpt>
      <trkpt lat="43.15824" lon="-0.23909">
        <ele>272</ele>
        <time>2012-11-17T15:44:20Z</time>
      </trkpt>
      <trkpt lat="43.15812" lon="-0.23903">
        <ele>272</ele>
        <time>2012-11-17T15:44:25Z</time>
      </trkpt>
      <trkpt lat="43.15799" lon="-0.23898">
        <ele>272.2</ele>
        <time>2012-11-17T15:44:30Z</time>
      </trkpt>
      <trkpt lat="43.15786" lon="-0.23893">
        <ele>272.6</ele>
        <time>2012-11-17T15:44:35Z</time>
      </trkpt>
      <trkpt lat="43.15774" lon="-0.23888">
        <ele>273</ele>
        <time>2012-11-17T15:44:40Z</time>
      </trkpt>
      <trkpt lat="43.15762" lon="-0.23883">
        <ele>272.9</ele>
        <time>2012-11-17T15:44:45Z</time>
      </trkpt>
      <trkpt lat="43.1575" lon="-0.23877">
        <ele>273</ele>
        <time>2012-11-17T15:44:50Z</time>
      </trkpt>
      <trkpt lat="43.15738" lon="-0.23872">
        <ele>273</ele>
        <time>2012-11-17T15:44:55Z</time>
      </trkpt>
      <trkpt lat="43.15725" lon="-0.23868">
        <ele>273</ele>
        <time>2012-11-17T15:45:00Z</time>
      </trkpt>
      <trkpt lat="43.15712" lon="-0.23862">
        <ele>273.4</ele>
        <time>2012-11-17T15:45:05Z</time>
      </trkpt>
      <trkpt lat="43.15699" lon="-0.23856">
        <ele>273.8</ele>
        <time>2012-11-17T15:45:10Z</time>
      </trkpt>
      <trkpt lat="43.15687" lon="-0.23851">
        <ele>274</ele>
        <time>2012-11-17T15:45:15Z</time>
      </trkpt>
      <trkpt lat="43.15673" lon="-0.23847">
        <ele>274</ele>
        <time>2012-11-17T15:45:20Z</time>
      </trkpt>
      <trkpt lat="43.15661" lon="-0.23842">
        <ele>274</ele>
        <time>2012-11-17T15:45:25Z</time>
      </trkpt>
      <trkpt lat="43.15649" lon="-0.23836">
        <ele>274</ele>
        <time>2012-11-17T15:45:30Z</time>
      </trkpt>
      <trkpt lat="43.15634" lon="-0.2383">
        <ele>274.2</ele>
        <time>2012-11-17T15:45:35Z</time>
      </trkpt>
      <trkpt lat="43.15624" lon="-0.23827">
        <ele>274.5</ele>
        <time>2012-11-17T15:45:40Z</time>
      </trkpt>
      <trkpt lat="43.15611" lon="-0.23822">
        <ele>275</ele>
        <time>2012-11-17T15:45:45Z</time>
      </trkpt>
      <trkpt lat="43.15599" lon="-0.23818">
        <ele>275</ele>
        <time>2012-11-17T15:45:50Z</time>
      </trkpt>
      <trkpt lat="43.15586" lon="-0.23815">
        <ele>275</ele>
        <time>2012-11-17T15:45:55Z</time>
      </trkpt>
      <trkpt lat="43.15571" lon="-0.23813">
        <ele>275</ele>
        <time>2012-11-17T15:46:00Z</time>
      </trkpt>
      <trkpt lat="43.15556" lon="-0.23815">
        <ele>275</ele>
        <time>2012-11-17T15:46:05Z</time>
      </trkpt>
      <trkpt lat="43.15544" lon="-0.23824">
        <ele>275.7</ele>
        <time>2012-11-17T15:46:10Z</time>
      </trkpt>
      <trkpt lat="43.15533" lon="-0.23835">
        <ele>276.7</ele>
        <time>2012-11-17T15:46:15Z</time>
      </trkpt>
      <trkpt lat="43.1552" lon="-0.23844">
        <ele>277.7</ele>
        <time>2012-11-17T15:46:20Z</time>
      </trkpt>
      <trkpt lat="43.1551" lon="-0.23855">
        <ele>278.4</ele>
        <time>2012-11-17T15:46:25Z</time>
      </trkpt>
      <trkpt lat="43.15501" lon="-0.23868">
        <ele>279</ele>
        <time>2012-11-17T15:46:30Z</time>
      </trkpt>
      <trkpt lat="43.15491" lon="-0.2388">
        <ele>279.7</ele>
        <time>2012-11-17T15:46:35Z</time>
      </trkpt>
      <trkpt lat="43.15481" lon="-0.23891">
        <ele>280.4</ele>
        <time>2012-11-17T15:46:40Z</time>
      </trkpt>
      <trkpt lat="43.1547" lon="-0.23906">
        <ele>281.2</ele>
        <time>2012-11-17T15:46:45Z</time>
      </trkpt>
      <trkpt lat="43.1546" lon="-0.23918">
        <ele>282.8</ele>
        <time>2012-11-17T15:46:50Z</time>
      </trkpt>
      <trkpt lat="43.15455" lon="-0.23909">
        <ele>283.1</ele>
        <time>2012-11-17T15:46:55Z</time>
      </trkpt>
      <trkpt lat="43.15449" lon="-0.23898">
        <ele>283.2</ele>
        <time>2012-11-17T15:47:00Z</time>
      </trkpt>
      <trkpt lat="43.15442" lon="-0.23882">
        <ele>283.7</ele>
        <time>2012-11-17T15:47:05Z</time>
      </trkpt>
      <trkpt lat="43.15434" lon="-0.23862">
        <ele>284.8</ele>
        <time>2012-11-17T15:47:10Z</time>
      </trkpt>
      <trkpt lat="43.15427" lon="-0.23847">
        <ele>284.5</ele>
        <time>2012-11-17T15:47:15Z</time>
      </trkpt>
      <trkpt lat="43.15418" lon="-0.23829">
        <ele>282.6</ele>
        <time>2012-11-17T15:47:20Z</time>
      </trkpt>
      <trkpt lat="43.15411" lon="-0.2381">
        <ele>283.3</ele>
        <time>2012-11-17T15:47:25Z</time>
      </trkpt>
      <trkpt lat="43.15399" lon="-0.23787">
        <ele>282.3</ele>
        <time>2012-11-17T15:47:30Z</time>
      </trkpt>
      <trkpt lat="43.15387" lon="-0.23775">
        <ele>281.6</ele>
        <time>2012-11-17T15:47:35Z</time>
      </trkpt>
      <trkpt lat="43.15374" lon="-0.23766">
        <ele>281</ele>
        <time>2012-11-17T15:47:40Z</time>
      </trkpt>
      <trkpt lat="43.15358" lon="-0.23761">
        <ele>280.8</ele>
        <time>2012-11-17T15:47:45Z</time>
      </trkpt>
      <trkpt lat="43.15342" lon="-0.23761">
        <ele>281.4</ele>
        <time>2012-11-17T15:47:50Z</time>
      </trkpt>
      <trkpt lat="43.15328" lon="-0.23767">
        <ele>283.1</ele>
        <time>2012-11-17T15:47:55Z</time>
      </trkpt>
      <trkpt lat="43.15313" lon="-0.23771">
        <ele>283.6</ele>
        <time>2012-11-17T15:48:00Z</time>
      </trkpt>
      <trkpt lat="43.15299" lon="-0.23778">
        <ele>284.3</ele>
        <time>2012-11-17T15:48:05Z</time>
      </trkpt>
      <trkpt lat="43.15286" lon="-0.23785">
        <ele>285.6</ele>
        <time>2012-11-17T15:48:10Z</time>
      </trkpt>
      <trkpt lat="43.15273" lon="-0.23797">
        <ele>287</ele>
        <time>2012-11-17T15:48:15Z</time>
      </trkpt>
      <trkpt lat="43.15258" lon="-0.23807">
        <ele>285.8</ele>
        <time>2012-11-17T15:48:20Z</time>
      </trkpt>
      <trkpt lat="43.15242" lon="-0.23817">
        <ele>284.8</ele>
        <time>2012-11-17T15:48:25Z</time>
      </trkpt>
      <trkpt lat="43.15228" lon="-0.23824">
        <ele>284.1</ele>
        <time>2012-11-17T15:48:30Z</time>
      </trkpt>
      <trkpt lat="43.15215" lon="-0.23831">
        <ele>284</ele>
        <time>2012-11-17T15:48:35Z</time>
      </trkpt>
      <trkpt lat="43.152" lon="-0.23841">
        <ele>285.1</ele>
        <time>2012-11-17T15:48:40Z</time>
      </trkpt>
      <trkpt lat="43.15185" lon="-0.2385">
        <ele>284.9</ele>
        <time>2012-11-17T15:48:45Z</time>
      </trkpt>
      <trkpt lat="43.15172" lon="-0.23861">
        <ele>284.7</ele>
        <time>2012-11-17T15:48:50Z</time>
      </trkpt>
      <trkpt lat="43.15159" lon="-0.23867">
        <ele>284.1</ele>
        <time>2012-11-17T15:48:55Z</time>
      </trkpt>
      <trkpt lat="43.15143" lon="-0.23874">
        <ele>282.8</ele>
        <time>2012-11-17T15:49:00Z</time>
      </trkpt>
      <trkpt lat="43.15133" lon="-0.23882">
        <ele>282.7</ele>
        <time>2012-11-17T15:49:05Z</time>
      </trkpt>
      <trkpt lat="43.15123" lon="-0.2389">
        <ele>282.3</ele>
        <time>2012-11-17T15:49:10Z</time>
      </trkpt>
      <trkpt lat="43.1511" lon="-0.23901">
        <ele>283.7</ele>
        <time>2012-11-17T15:49:15Z</time>
      </trkpt>
      <trkpt lat="43.15097" lon="-0.23913">
        <ele>284.7</ele>
        <time>2012-11-17T15:49:20Z</time>
      </trkpt>
      <trkpt lat="43.15086" lon="-0.2392">
        <ele>283.9</ele>
        <time>2012-11-17T15:49:25Z</time>
      </trkpt>
      <trkpt lat="43.15073" lon="-0.23931">
        <ele>285.2</ele>
        <time>2012-11-17T15:49:30Z</time>
      </trkpt>
      <trkpt lat="43.15061" lon="-0.23939">
        <ele>285.1</ele>
        <time>2012-11-17T15:49:35Z</time>
      </trkpt>
      <trkpt lat="43.15045" lon="-0.23952">
        <ele>285.2</ele>
        <time>2012-11-17T15:49:40Z</time>
      </trkpt>
      <trkpt lat="43.15036" lon="-0.23962">
        <ele>285.4</ele>
        <time>2012-11-17T15:49:45Z</time>
      </trkpt>
      <trkpt lat="43.15025" lon="-0.23976">
        <ele>285.8</ele>
        <time>2012-11-17T15:49:50Z</time>
      </trkpt>
      <trkpt lat="43.1502" lon="-0.23982">
        <ele>286.3</ele>
        <time>2012-11-17T15:49:55Z</time>
      </trkpt>
      <trkpt lat="43.15018" lon="-0.23984">
        <ele>286.4</ele>
        <time>2012-11-17T15:50:00Z</time>
      </trkpt>
      <trkpt lat="43.15009" lon="-0.23994">
        <ele>286.3</ele>
        <time>2012-11-17T15:50:05Z</time>
      </trkpt>
      <trkpt lat="43.15" lon="-0.24005">
        <ele>285.6</ele>
        <time>2012-11-17T15:50:10Z</time>
      </trkpt>
      <trkpt lat="43.14991" lon="-0.24015">
        <ele>285.5</ele>
        <time>2012-11-17T15:50:15Z</time>
      </trkpt>
      <trkpt lat="43.14982" lon="-0.24025">
        <ele>284.2</ele>
        <time>2012-11-17T15:50:20Z</time>
      </trkpt>
      <trkpt lat="43.14973" lon="-0.24039">
        <ele>283.7</ele>
        <time>2012-11-17T15:50:25Z</time>
      </trkpt>
      <trkpt lat="43.14965" lon="-0.24051">
        <ele>284.3</ele>
        <time>2012-11-17T15:50:30Z</time>
      </trkpt>
      <trkpt lat="43.14956" lon="-0.24062">
        <ele>284.4</ele>
        <time>2012-11-17T15:50:35Z</time>
      </trkpt>
      <trkpt lat="43.14946" lon="-0.24074">
        <ele>284.4</ele>
        <time>2012-11-17T15:50:40Z</time>
      </trkpt>
      <trkpt lat="43.14937" lon="-0.24087">
        <ele>285</ele>
        <time>2012-11-17T15:50:45Z</time>
      </trkpt>
      <trkpt lat="43.14928" lon="-0.24099">
        <ele>285.1</ele>
        <time>2012-11-17T15:50:50Z</time>
      </trkpt>
      <trkpt lat="43.14918" lon="-0.24114">
        <ele>285</ele>
        <time>2012-11-17T15:50:55Z</time>
      </trkpt>
      <trkpt lat="43.14907" lon="-0.24125">
        <ele>285.3</ele>
        <time>2012-11-17T15:51:00Z</time>
      </trkpt>
      <trkpt lat="43.14898" lon="-0.24136">
        <ele>285</ele>
        <time>2012-11-17T15:51:05Z</time>
      </trkpt>
      <trkpt lat="43.14891" lon="-0.24147">
        <ele>284.9</ele>
        <time>2012-11-17T15:51:10Z</time>
      </trkpt>
      <trkpt lat="43.14884" lon="-0.24162">
        <ele>286.3</ele>
        <time>2012-11-17T15:51:15Z</time>
      </trkpt>
      <trkpt lat="43.14878" lon="-0.24172">
        <ele>286.5</ele>
        <time>2012-11-17T15:51:20Z</time>
      </trkpt>
      <trkpt lat="43.14869" lon="-0.24187">
        <ele>286.8</ele>
        <time>2012-11-17T15:51:25Z</time>
      </trkpt>
      <trkpt lat="43.14861" lon="-0.242">
        <ele>285.8</ele>
        <time>2012-11-17T15:51:30Z</time>
      </trkpt>
      <trkpt lat="43.14854" lon="-0.24213">
        <ele>286.3</ele>
        <time>2012-11-17T15:51:35Z</time>
      </trkpt>
      <trkpt lat="43.14844" lon="-0.24228">
        <ele>286.1</ele>
        <time>2012-11-17T15:51:40Z</time>
      </trkpt>
      <trkpt lat="43.14836" lon="-0.24242">
        <ele>285.4</ele>
        <time>2012-11-17T15:51:45Z</time>
      </trkpt>
      <trkpt lat="43.14833" lon="-0.24252">
        <ele>285</ele>
        <time>2012-11-17T15:51:50Z</time>
      </trkpt>
      <trkpt lat="43.14828" lon="-0.24259">
        <ele>284.8</ele>
        <time>2012-11-17T15:51:55Z</time>
      </trkpt>
      <trkpt lat="43.14826" lon="-0.2427">
        <ele>285.1</ele>
        <time>2012-11-17T15:52:00Z</time>
      </trkpt>
      <trkpt lat="43.14824" lon="-0.24282">
        <ele>286</ele>
        <time>2012-11-17T15:52:05Z</time>
      </trkpt>
      <trkpt lat="43.14816" lon="-0.24298">
        <ele>287.1</ele>
        <time>2012-11-17T15:52:10Z</time>
      </trkpt>
      <trkpt lat="43.1481" lon="-0.24309">
        <ele>287.2</ele>
        <time>2012-11-17T15:52:15Z</time>
      </trkpt>
      <trkpt lat="43.14802" lon="-0.24321">
        <ele>286.7</ele>
        <time>2012-11-17T15:52:20Z</time>
      </trkpt>
      <trkpt lat="43.14794" lon="-0.24332">
        <ele>287.4</ele>
        <time>2012-11-17T15:52:25Z</time>
      </trkpt>
      <trkpt lat="43.14786" lon="-0.24345">
        <ele>287.1</ele>
        <time>2012-11-17T15:52:30Z</time>
      </trkpt>
      <trkpt lat="43.14783" lon="-0.24359">
        <ele>286.1</ele>
        <time>2012-11-17T15:52:35Z</time>
      </trkpt>
      <trkpt lat="43.1478" lon="-0.24372">
        <ele>286.3</ele>
        <time>2012-11-17T15:52:40Z</time>
      </trkpt>
      <trkpt lat="43.14777" lon="-0.24386">
        <ele>286.6</ele>
        <time>2012-11-17T15:52:45Z</time>
      </trkpt>
      <trkpt lat="43.14772" lon="-0.24398">
        <ele>286.6</ele>
        <time>2012-11-17T15:52:50Z</time>
      </trkpt>
      <trkpt lat="43.14771" lon="-0.24417">
        <ele>287.5</ele>
        <time>2012-11-17T15:52:55Z</time>
      </trkpt>
      <trkpt lat="43.14771" lon="-0.24433">
        <ele>288.3</ele>
        <time>2012-11-17T15:53:00Z</time>
      </trkpt>
      <trkpt lat="43.14772" lon="-0.24451">
        <ele>289.7</ele>
        <time>2012-11-17T15:53:05Z</time>
      </trkpt>
      <trkpt lat="43.14773" lon="-0.24468">
        <ele>291.2</ele>
        <time>2012-11-17T15:53:10Z</time>
      </trkpt>
      <trkpt lat="43.14772" lon="-0.24482">
        <ele>291.7</ele>
        <time>2012-11-17T15:53:15Z</time>
      </trkpt>
      <trkpt lat="43.14771" lon="-0.24499">
        <ele>292.5</ele>
        <time>2012-11-17T15:53:20Z</time>
      </trkpt>
      <trkpt lat="43.14769" lon="-0.24515">
        <ele>293</ele>
        <time>2012-11-17T15:53:25Z</time>
      </trkpt>
      <trkpt lat="43.14768" lon="-0.2453">
        <ele>293.7</ele>
        <time>2012-11-17T15:53:30Z</time>
      </trkpt>
      <trkpt lat="43.14763" lon="-0.24547">
        <ele>292.5</ele>
        <time>2012-11-17T15:53:35Z</time>
      </trkpt>
      <trkpt lat="43.14759" lon="-0.24563">
        <ele>292.1</ele>
        <time>2012-11-17T15:53:40Z</time>
      </trkpt>
      <trkpt lat="43.14758" lon="-0.2458">
        <ele>292.5</ele>
        <time>2012-11-17T15:53:45Z</time>
      </trkpt>
      <trkpt lat="43.14758" lon="-0.24594">
        <ele>292.8</ele>
        <time>2012-11-17T15:53:50Z</time>
      </trkpt>
      <trkpt lat="43.14757" lon="-0.24609">
        <ele>293.3</ele>
        <time>2012-11-17T15:53:55Z</time>
      </trkpt>
      <trkpt lat="43.14754" lon="-0.24626">
        <ele>293.1</ele>
        <time>2012-11-17T15:54:00Z</time>
      </trkpt>
      <trkpt lat="43.14754" lon="-0.24641">
        <ele>294</ele>
        <time>2012-11-17T15:54:05Z</time>
      </trkpt>
      <trkpt lat="43.14753" lon="-0.24657">
        <ele>294.7</ele>
        <time>2012-11-17T15:54:10Z</time>
      </trkpt>
      <trkpt lat="43.1475" lon="-0.24674">
        <ele>294.6</ele>
        <time>2012-11-17T15:54:15Z</time>
      </trkpt>
      <trkpt lat="43.14749" lon="-0.24691">
        <ele>295.3</ele>
        <time>2012-11-17T15:54:20Z</time>
      </trkpt>
      <trkpt lat="43.14747" lon="-0.24709">
        <ele>295.7</ele>
        <time>2012-11-17T15:54:25Z</time>
      </trkpt>
      <trkpt lat="43.14746" lon="-0.24726">
        <ele>295.8</ele>
        <time>2012-11-17T15:54:30Z</time>
      </trkpt>
      <trkpt lat="43.14743" lon="-0.24743">
        <ele>294.9</ele>
        <time>2012-11-17T15:54:35Z</time>
      </trkpt>
      <trkpt lat="43.14742" lon="-0.24761">
        <ele>294.4</ele>
        <time>2012-11-17T15:54:40Z</time>
      </trkpt>
      <trkpt lat="43.14743" lon="-0.24777">
        <ele>294.5</ele>
        <time>2012-11-17T15:54:45Z</time>
      </trkpt>
      <trkpt lat="43.14741" lon="-0.24793">
        <ele>293.5</ele>
        <time>2012-11-17T15:54:50Z</time>
      </trkpt>
      <trkpt lat="43.14739" lon="-0.24811">
        <ele>292.5</ele>
        <time>2012-11-17T15:54:55Z</time>
      </trkpt>
      <trkpt lat="43.14739" lon="-0.24827">
        <ele>292.2</ele>
        <time>2012-11-17T15:55:00Z</time>
      </trkpt>
      <trkpt lat="43.14737" lon="-0.24843">
        <ele>292</ele>
        <time>2012-11-17T15:55:05Z</time>
      </trkpt>
      <trkpt lat="43.14735" lon="-0.24862">
        <ele>292.2</ele>
        <time>2012-11-17T15:55:10Z</time>
      </trkpt>
      <trkpt lat="43.14732" lon="-0.24879">
        <ele>293.7</ele>
        <time>2012-11-17T15:55:15Z</time>
      </trkpt>
      <trkpt lat="43.14722" lon="-0.24893">
        <ele>292.4</ele>
        <time>2012-11-17T15:55:20Z</time>
      </trkpt>
      <trkpt lat="43.14707" lon="-0.24903">
        <ele>290.3</ele>
        <time>2012-11-17T15:55:25Z</time>
      </trkpt>
      <trkpt lat="43.14698" lon="-0.24918">
        <ele>289.2</ele>
        <time>2012-11-17T15:55:30Z</time>
      </trkpt>
      <trkpt lat="43.14692" lon="-0.24933">
        <ele>289.5</ele>
        <time>2012-11-17T15:55:35Z</time>
      </trkpt>
      <trkpt lat="43.14685" lon="-0.2495">
        <ele>290.1</ele>
        <time>2012-11-17T15:55:40Z</time>
      </trkpt>
      <trkpt lat="43.1468" lon="-0.24966">
        <ele>290.4</ele>
        <time>2012-11-17T15:55:45Z</time>
      </trkpt>
      <trkpt lat="43.14676" lon="-0.24982">
        <ele>290.3</ele>
        <time>2012-11-17T15:55:50Z</time>
      </trkpt>
      <trkpt lat="43.14674" lon="-0.25">
        <ele>290.1</ele>
        <time>2012-11-17T15:55:55Z</time>
      </trkpt>
      <trkpt lat="43.14673" lon="-0.25013">
        <ele>290</ele>
        <time>2012-11-17T15:56:00Z</time>
      </trkpt>
      <trkpt lat="43.14672" lon="-0.25037">
        <ele>290</ele>
        <time>2012-11-17T15:56:05Z</time>
      </trkpt>
      <trkpt lat="43.14672" lon="-0.25056">
        <ele>290.4</ele>
        <time>2012-11-17T15:56:10Z</time>
      </trkpt>
      <trkpt lat="43.1467" lon="-0.25075">
        <ele>289.9</ele>
        <time>2012-11-17T15:56:15Z</time>
      </trkpt>
      <trkpt lat="43.14668" lon="-0.25093">
        <ele>290</ele>
        <time>2012-11-17T15:56:20Z</time>
      </trkpt>
      <trkpt lat="43.14666" lon="-0.25109">
        <ele>290.8</ele>
        <time>2012-11-17T15:56:25Z</time>
      </trkpt>
      <trkpt lat="43.14665" lon="-0.25128">
        <ele>291.5</ele>
        <time>2012-11-17T15:56:30Z</time>
      </trkpt>
      <trkpt lat="43.14658" lon="-0.2514">
        <ele>291.4</ele>
        <time>2012-11-17T15:56:35Z</time>
      </trkpt>
      <trkpt lat="43.14647" lon="-0.25151">
        <ele>291.1</ele>
        <time>2012-11-17T15:56:40Z</time>
      </trkpt>
      <trkpt lat="43.14641" lon="-0.25167">
        <ele>291.2</ele>
        <time>2012-11-17T15:56:45Z</time>
      </trkpt>
      <trkpt lat="43.14635" lon="-0.25183">
        <ele>291.3</ele>
        <time>2012-11-17T15:56:50Z</time>
      </trkpt>
      <trkpt lat="43.14632" lon="-0.252">
        <ele>291.4</ele>
        <time>2012-11-17T15:56:55Z</time>
      </trkpt>
      <trkpt lat="43.14628" lon="-0.25219">
        <ele>291.7</ele>
        <time>2012-11-17T15:57:00Z</time>
      </trkpt>
      <trkpt lat="43.14624" lon="-0.25237">
        <ele>291.7</ele>
        <time>2012-11-17T15:57:05Z</time>
      </trkpt>
      <trkpt lat="43.1462" lon="-0.25255">
        <ele>291.8</ele>
        <time>2012-11-17T15:57:10Z</time>
      </trkpt>
      <trkpt lat="43.14616" lon="-0.25273">
        <ele>292.2</ele>
        <time>2012-11-17T15:57:15Z</time>
      </trkpt>
      <trkpt lat="43.14611" lon="-0.25289">
        <ele>292.4</ele>
        <time>2012-11-17T15:57:20Z</time>
      </trkpt>
      <trkpt lat="43.14606" lon="-0.25306">
        <ele>292.8</ele>
        <time>2012-11-17T15:57:25Z</time>
      </trkpt>
      <trkpt lat="43.146" lon="-0.25323">
        <ele>293.6</ele>
        <time>2012-11-17T15:57:30Z</time>
      </trkpt>
      <trkpt lat="43.14592" lon="-0.25335">
        <ele>293.7</ele>
        <time>2012-11-17T15:57:35Z</time>
      </trkpt>
      <trkpt lat="43.1458" lon="-0.25344">
        <ele>293.6</ele>
        <time>2012-11-17T15:57:40Z</time>
      </trkpt>
      <trkpt lat="43.14566" lon="-0.25342">
        <ele>292.8</ele>
        <time>2012-11-17T15:57:45Z</time>
      </trkpt>
      <trkpt lat="43.1455" lon="-0.25344">
        <ele>292.3</ele>
        <time>2012-11-17T15:57:50Z</time>
      </trkpt>
      <trkpt lat="43.1454" lon="-0.25345">
        <ele>292.2</ele>
        <time>2012-11-17T15:57:55Z</time>
      </trkpt>
      <trkpt lat="43.14526" lon="-0.25344">
        <ele>292</ele>
        <time>2012-11-17T15:58:00Z</time>
      </trkpt>
      <trkpt lat="43.14512" lon="-0.25344">
        <ele>292.2</ele>
        <time>2012-11-17T15:58:05Z</time>
      </trkpt>
      <trkpt lat="43.14498" lon="-0.25346">
        <ele>292.5</ele>
        <time>2012-11-17T15:58:10Z</time>
      </trkpt>
      <trkpt lat="43.14485" lon="-0.25346">
        <ele>292.8</ele>
        <time>2012-11-17T15:58:15Z</time>
      </trkpt>
      <trkpt lat="43.14472" lon="-0.25348">
        <ele>293</ele>
        <time>2012-11-17T15:58:20Z</time>
      </trkpt>
      <trkpt lat="43.14459" lon="-0.25351">
        <ele>293.3</ele>
        <time>2012-11-17T15:58:25Z</time>
      </trkpt>
      <trkpt lat="43.14453" lon="-0.25368">
        <ele>293.7</ele>
        <time>2012-11-17T15:58:30Z</time>
      </trkpt>
      <trkpt lat="43.1445" lon="-0.25386">
        <ele>293.8</ele>
        <time>2012-11-17T15:58:35Z</time>
      </trkpt>
      <trkpt lat="43.14443" lon="-0.25401">
        <ele>294.1</ele>
        <time>2012-11-17T15:58:40Z</time>
      </trkpt>
      <trkpt lat="43.14437" lon="-0.25417">
        <ele>294.3</ele>
        <time>2012-11-17T15:58:45Z</time>
      </trkpt>
      <trkpt lat="43.14431" lon="-0.25432">
        <ele>294.5</ele>
        <time>2012-11-17T15:58:50Z</time>
      </trkpt>
      <trkpt lat="43.14426" lon="-0.25447">
        <ele>294.8</ele>
        <time>2012-11-17T15:58:55Z</time>
      </trkpt>
      <trkpt lat="43.1442" lon="-0.25463">
        <ele>295.6</ele>
        <time>2012-11-17T15:59:00Z</time>
      </trkpt>
      <trkpt lat="43.14414" lon="-0.25479">
        <ele>297</ele>
        <time>2012-11-17T15:59:05Z</time>
      </trkpt>
      <trkpt lat="43.14408" lon="-0.25491">
        <ele>298.6</ele>
        <time>2012-11-17T15:59:10Z</time>
      </trkpt>
      <trkpt lat="43.14399" lon="-0.255">
        <ele>299.3</ele>
        <time>2012-11-17T15:59:15Z</time>
      </trkpt>
      <trkpt lat="43.14387" lon="-0.25507">
        <ele>300.5</ele>
        <time>2012-11-17T15:59:20Z</time>
      </trkpt>
      <trkpt lat="43.14376" lon="-0.25513">
        <ele>300.9</ele>
        <time>2012-11-17T15:59:25Z</time>
      </trkpt>
      <trkpt lat="43.14365" lon="-0.25521">
        <ele>300.9</ele>
        <time>2012-11-17T15:59:30Z</time>
      </trkpt>
      <trkpt lat="43.14354" lon="-0.25528">
        <ele>301.8</ele>
        <time>2012-11-17T15:59:35Z</time>
      </trkpt>
      <trkpt lat="43.14344" lon="-0.25529">
        <ele>303.1</ele>
        <time>2012-11-17T15:59:40Z</time>
      </trkpt>
      <trkpt lat="43.14343" lon="-0.25527">
        <ele>302.8</ele>
        <time>2012-11-17T15:59:45Z</time>
      </trkpt>
      <trkpt lat="43.14337" lon="-0.25527">
        <ele>303.6</ele>
        <time>2012-11-17T15:59:50Z</time>
      </trkpt>
      <trkpt lat="43.14331" lon="-0.25528">
        <ele>304.5</ele>
        <time>2012-11-17T15:59:55Z</time>
      </trkpt>
      <trkpt lat="43.14328" lon="-0.25528">
        <ele>305.2</ele>
        <time>2012-11-17T16:00:00Z</time>
      </trkpt>
      <trkpt lat="43.14323" lon="-0.25526">
        <ele>305.8</ele>
        <time>2012-11-17T16:00:05Z</time>
      </trkpt>
      <trkpt lat="43.14317" lon="-0.25524">
        <ele>306.6</ele>
        <time>2012-11-17T16:00:10Z</time>
      </trkpt>
      <trkpt lat="43.14316" lon="-0.25524">
        <ele>306.9</ele>
        <time>2012-11-17T16:00:15Z</time>
      </trkpt>
      <trkpt lat="43.14311" lon="-0.25525">
        <ele>308.1</ele>
        <time>2012-11-17T16:00:20Z</time>
      </trkpt>
      <trkpt lat="43.14306" lon="-0.25525">
        <ele>309</ele>
        <time>2012-11-17T16:00:25Z</time>
      </trkpt>
      <trkpt lat="43.14297" lon="-0.25526">
        <ele>309.5</ele>
        <time>2012-11-17T16:00:30Z</time>
      </trkpt>
      <trkpt lat="43.14285" lon="-0.2553">
        <ele>310.6</ele>
        <time>2012-11-17T16:00:35Z</time>
      </trkpt>
      <trkpt lat="43.14274" lon="-0.25536">
        <ele>311.8</ele>
        <time>2012-11-17T16:00:40Z</time>
      </trkpt>
      <trkpt lat="43.14262" lon="-0.25543">
        <ele>312.6</ele>
        <time>2012-11-17T16:00:45Z</time>
      </trkpt>
      <trkpt lat="43.14249" lon="-0.25549">
        <ele>313.2</ele>
        <time>2012-11-17T16:00:50Z</time>
      </trkpt>
      <trkpt lat="43.14237" lon="-0.25553">
        <ele>314.2</ele>
        <time>2012-11-17T16:00:55Z</time>
      </trkpt>
      <trkpt lat="43.14223" lon="-0.25556">
        <ele>315</ele>
        <time>2012-11-17T16:01:00Z</time>
      </trkpt>
      <trkpt lat="43.1421" lon="-0.25556">
        <ele>316.4</ele>
        <time>2012-11-17T16:01:05Z</time>
      </trkpt>
      <trkpt lat="43.14196" lon="-0.25553">
        <ele>316.8</ele>
        <time>2012-11-17T16:01:10Z</time>
      </trkpt>
      <trkpt lat="43.14182" lon="-0.25549">
        <ele>316.8</ele>
        <time>2012-11-17T16:01:15Z</time>
      </trkpt>
      <trkpt lat="43.14169" lon="-0.25547">
        <ele>317.8</ele>
        <time>2012-11-17T16:01:20Z</time>
      </trkpt>
      <trkpt lat="43.14155" lon="-0.25543">
        <ele>318.3</ele>
        <time>2012-11-17T16:01:25Z</time>
      </trkpt>
      <trkpt lat="43.14142" lon="-0.25539">
        <ele>319</ele>
        <time>2012-11-17T16:01:30Z</time>
      </trkpt>
      <trkpt lat="43.14134" lon="-0.25541">
        <ele>319.5</ele>
        <time>2012-11-17T16:01:35Z</time>
      </trkpt>
      <trkpt lat="43.14125" lon="-0.2556">
        <ele>320.2</ele>
        <time>2012-11-17T16:01:40Z</time>
      </trkpt>
      <trkpt lat="43.14125" lon="-0.25576">
        <ele>320.7</ele>
        <time>2012-11-17T16:01:45Z</time>
      </trkpt>
      <trkpt lat="43.14134" lon="-0.2559">
        <ele>321.2</ele>
        <time>2012-11-17T16:01:50Z</time>
      </trkpt>
      <trkpt lat="43.14142" lon="-0.25603">
        <ele>321.7</ele>
        <time>2012-11-17T16:01:55Z</time>
      </trkpt>
      <trkpt lat="43.1415" lon="-0.25617">
        <ele>322.1</ele>
        <time>2012-11-17T16:02:00Z</time>
      </trkpt>
      <trkpt lat="43.14157" lon="-0.25632">
        <ele>322.5</ele>
        <time>2012-11-17T16:02:05Z</time>
      </trkpt>
      <trkpt lat="43.14166" lon="-0.25646">
        <ele>323</ele>
        <time>2012-11-17T16:02:10Z</time>
      </trkpt>
      <trkpt lat="43.14175" lon="-0.25661">
        <ele>322.9</ele>
        <time>2012-11-17T16:02:15Z</time>
      </trkpt>
      <trkpt lat="43.14183" lon="-0.25672">
        <ele>323.2</ele>
        <time>2012-11-17T16:02:20Z</time>
      </trkpt>
      <trkpt lat="43.14195" lon="-0.2569">
        <ele>323.8</ele>
        <time>2012-11-17T16:02:25Z</time>
      </trkpt>
      <trkpt lat="43.14204" lon="-0.25706">
        <ele>323.6</ele>
        <time>2012-11-17T16:02:30Z</time>
      </trkpt>
      <trkpt lat="43.14216" lon="-0.25721">
        <ele>323.2</ele>
        <time>2012-11-17T16:02:35Z</time>
      </trkpt>
      <trkpt lat="43.14228" lon="-0.25734">
        <ele>323</ele>
        <time>2012-11-17T16:02:40Z</time>
      </trkpt>
      <trkpt lat="43.14243" lon="-0.25743">
        <ele>323</ele>
        <time>2012-11-17T16:02:45Z</time>
      </trkpt>
      <trkpt lat="43.14258" lon="-0.25748">
        <ele>322.8</ele>
        <time>2012-11-17T16:02:50Z</time>
      </trkpt>
      <trkpt lat="43.14273" lon="-0.25749">
        <ele>322.2</ele>
        <time>2012-11-17T16:02:55Z</time>
      </trkpt>
      <trkpt lat="43.14288" lon="-0.25749">
        <ele>322</ele>
        <time>2012-11-17T16:03:00Z</time>
      </trkpt>
      <trkpt lat="43.14302" lon="-0.25752">
        <ele>322</ele>
        <time>2012-11-17T16:03:05Z</time>
      </trkpt>
      <trkpt lat="43.14318" lon="-0.25754">
        <ele>321.6</ele>
        <time>2012-11-17T16:03:10Z</time>
      </trkpt>
      <trkpt lat="43.14333" lon="-0.25755">
        <ele>321.2</ele>
        <time>2012-11-17T16:03:15Z</time>
      </trkpt>
      <trkpt lat="43.14349" lon="-0.25754">
        <ele>321.1</ele>
        <time>2012-11-17T16:03:20Z</time>
      </trkpt>
      <trkpt lat="43.14363" lon="-0.25754">
        <ele>321.2</ele>
        <time>2012-11-17T16:03:25Z</time>
      </trkpt>
      <trkpt lat="43.14377" lon="-0.25755">
        <ele>321.2</ele>
        <time>2012-11-17T16:03:30Z</time>
      </trkpt>
      <trkpt lat="43.1439" lon="-0.25754">
        <ele>321.1</ele>
        <time>2012-11-17T16:03:35Z</time>
      </trkpt>
      <trkpt lat="43.14404" lon="-0.25753">
        <ele>321.1</ele>
        <time>2012-11-17T16:03:40Z</time>
      </trkpt>
      <trkpt lat="43.14416" lon="-0.25754">
        <ele>321.2</ele>
        <time>2012-11-17T16:03:45Z</time>
      </trkpt>
      <trkpt lat="43.14431" lon="-0.25755">
        <ele>321.1</ele>
        <time>2012-11-17T16:03:50Z</time>
      </trkpt>
      <trkpt lat="43.14447" lon="-0.25755">
        <ele>321</ele>
        <time>2012-11-17T16:03:55Z</time>
      </trkpt>
      <trkpt lat="43.14462" lon="-0.25755">
        <ele>321</ele>
        <time>2012-11-17T16:04:00Z</time>
      </trkpt>
      <trkpt lat="43.14469" lon="-0.25748">
        <ele>321</ele>
        <time>2012-11-17T16:04:05Z</time>
      </trkpt>
      <trkpt lat="43.14461" lon="-0.25727">
        <ele>321</ele>
        <time>2012-11-17T16:04:10Z</time>
      </trkpt>
      <trkpt lat="43.1445" lon="-0.25711">
        <ele>321.1</ele>
        <time>2012-11-17T16:04:15Z</time>
      </trkpt>
      <trkpt lat="43.14436" lon="-0.257">
        <ele>320.5</ele>
        <time>2012-11-17T16:04:20Z</time>
      </trkpt>
      <trkpt lat="43.14419" lon="-0.25702">
        <ele>319.4</ele>
        <time>2012-11-17T16:04:25Z</time>
      </trkpt>
      <trkpt lat="43.14408" lon="-0.25706">
        <ele>319.6</ele>
        <time>2012-11-17T16:04:30Z</time>
      </trkpt>
      <trkpt lat="43.14394" lon="-0.25711">
        <ele>319.9</ele>
        <time>2012-11-17T16:04:35Z</time>
      </trkpt>
      <trkpt lat="43.14382" lon="-0.25712">
        <ele>320.1</ele>
        <time>2012-11-17T16:04:40Z</time>
      </trkpt>
      <trkpt lat="43.1438" lon="-0.25698">
        <ele>320.3</ele>
        <time>2012-11-17T16:04:45Z</time>
      </trkpt>
      <trkpt lat="43.14382" lon="-0.2569">
        <ele>320.2</ele>
        <time>2012-11-17T16:04:50Z</time>
      </trkpt>
      <trkpt lat="43.14381" lon="-0.25674">
        <ele>320.1</ele>
        <time>2012-11-17T16:04:55Z</time>
      </trkpt>
      <trkpt lat="43.14378" lon="-0.25652">
        <ele>319.8</ele>
        <time>2012-11-17T16:05:00Z</time>
      </trkpt>
      <trkpt lat="43.14376" lon="-0.25631">
        <ele>319.2</ele>
        <time>2012-11-17T16:05:05Z</time>
      </trkpt>
      <trkpt lat="43.14368" lon="-0.25612">
        <ele>318.3</ele>
        <time>2012-11-17T16:05:10Z</time>
      </trkpt>
      <trkpt lat="43.14362" lon="-0.25597">
        <ele>316</ele>
        <time>2012-11-17T16:05:15Z</time>
      </trkpt>
      <trkpt lat="43.14357" lon="-0.25579">
        <ele>313.1</ele>
        <time>2012-11-17T16:05:20Z</time>
      </trkpt>
      <trkpt lat="43.14355" lon="-0.25558">
        <ele>308.1</ele>
        <time>2012-11-17T16:05:25Z</time>
      </trkpt>
      <trkpt lat="43.14361" lon="-0.25534">
        <ele>302.5</ele>
        <time>2012-11-17T16:05:30Z</time>
      </trkpt>
      <trkpt lat="43.14368" lon="-0.25519">
        <ele>301.1</ele>
        <time>2012-11-17T16:05:35Z</time>
      </trkpt>
      <trkpt lat="43.14381" lon="-0.25509">
        <ele>300.6</ele>
        <time>2012-11-17T16:05:40Z</time>
      </trkpt>
      <trkpt lat="43.14394" lon="-0.255">
        <ele>299.3</ele>
        <time>2012-11-17T16:05:45Z</time>
      </trkpt>
      <trkpt lat="43.14408" lon="-0.25493">
        <ele>298.8</ele>
        <time>2012-11-17T16:05:50Z</time>
      </trkpt>
      <trkpt lat="43.1442" lon="-0.25486">
        <ele>298.1</ele>
        <time>2012-11-17T16:05:55Z</time>
      </trkpt>
      <trkpt lat="43.14435" lon="-0.25483">
        <ele>297.7</ele>
        <time>2012-11-17T16:06:00Z</time>
      </trkpt>
      <trkpt lat="43.14448" lon="-0.25479">
        <ele>297.5</ele>
        <time>2012-11-17T16:06:05Z</time>
      </trkpt>
      <trkpt lat="43.14463" lon="-0.25477">
        <ele>298.2</ele>
        <time>2012-11-17T16:06:10Z</time>
      </trkpt>
      <trkpt lat="43.14475" lon="-0.25474">
        <ele>298.8</ele>
        <time>2012-11-17T16:06:15Z</time>
      </trkpt>
      <trkpt lat="43.14487" lon="-0.25468">
        <ele>299.5</ele>
        <time>2012-11-17T16:06:20Z</time>
      </trkpt>
      <trkpt lat="43.14499" lon="-0.25464">
        <ele>300</ele>
        <time>2012-11-17T16:06:25Z</time>
      </trkpt>
      <trkpt lat="43.1451" lon="-0.25459">
        <ele>300.9</ele>
        <time>2012-11-17T16:06:30Z</time>
      </trkpt>
      <trkpt lat="43.1452" lon="-0.25454">
        <ele>301.7</ele>
        <time>2012-11-17T16:06:35Z</time>
      </trkpt>
      <trkpt lat="43.14531" lon="-0.2545">
        <ele>302.8</ele>
        <time>2012-11-17T16:06:40Z</time>
      </trkpt>
      <trkpt lat="43.14542" lon="-0.25444">
        <ele>303.9</ele>
        <time>2012-11-17T16:06:45Z</time>
      </trkpt>
      <trkpt lat="43.14552" lon="-0.2544">
        <ele>305.3</ele>
        <time>2012-11-17T16:06:50Z</time>
      </trkpt>
      <trkpt lat="43.14562" lon="-0.25435">
        <ele>306.2</ele>
        <time>2012-11-17T16:06:55Z</time>
      </trkpt>
      <trkpt lat="43.1457" lon="-0.25432">
        <ele>307.2</ele>
        <time>2012-11-17T16:07:00Z</time>
      </trkpt>
      <trkpt lat="43.14579" lon="-0.25428">
        <ele>308</ele>
        <time>2012-11-17T16:07:05Z</time>
      </trkpt>
      <trkpt lat="43.14588" lon="-0.25427">
        <ele>309.9</ele>
        <time>2012-11-17T16:07:10Z</time>
      </trkpt>
      <trkpt lat="43.14595" lon="-0.25436">
        <ele>312.3</ele>
        <time>2012-11-17T16:07:15Z</time>
      </trkpt>
      <trkpt lat="43.14599" lon="-0.25444">
        <ele>314.1</ele>
        <time>2012-11-17T16:07:20Z</time>
      </trkpt>
      <trkpt lat="43.14601" lon="-0.25448">
        <ele>314.8</ele>
        <time>2012-11-17T16:07:25Z</time>
      </trkpt>
      <trkpt lat="43.14603" lon="-0.25449">
        <ele>315.2</ele>
        <time>2012-11-17T16:07:30Z</time>
      </trkpt>
      <trkpt lat="43.14604" lon="-0.25458">
        <ele>316.2</ele>
        <time>2012-11-17T16:07:35Z</time>
      </trkpt>
      <trkpt lat="43.14607" lon="-0.25465">
        <ele>317.1</ele>
        <time>2012-11-17T16:07:40Z</time>
      </trkpt>
      <trkpt lat="43.14612" lon="-0.25476">
        <ele>318.3</ele>
        <time>2012-11-17T16:07:45Z</time>
      </trkpt>
      <trkpt lat="43.14616" lon="-0.25489">
        <ele>319.3</ele>
        <time>2012-11-17T16:07:50Z</time>
      </trkpt>
      <trkpt lat="43.1462" lon="-0.25503">
        <ele>320</ele>
        <time>2012-11-17T16:07:55Z</time>
      </trkpt>
      <trkpt lat="43.14627" lon="-0.25518">
        <ele>320.4</ele>
        <time>2012-11-17T16:08:00Z</time>
      </trkpt>
      <trkpt lat="43.14638" lon="-0.25521">
        <ele>320.7</ele>
        <time>2012-11-17T16:08:05Z</time>
      </trkpt>
      <trkpt lat="43.1465" lon="-0.25516">
        <ele>320.6</ele>
        <time>2012-11-17T16:08:10Z</time>
      </trkpt>
      <trkpt lat="43.14662" lon="-0.25509">
        <ele>320.3</ele>
        <time>2012-11-17T16:08:15Z</time>
      </trkpt>
      <trkpt lat="43.14675" lon="-0.25503">
        <ele>320.1</ele>
        <time>2012-11-17T16:08:20Z</time>
      </trkpt>
      <trkpt lat="43.14686" lon="-0.25496">
        <ele>319.9</ele>
        <time>2012-11-17T16:08:25Z</time>
      </trkpt>
      <trkpt lat="43.14702" lon="-0.25488">
        <ele>319.8</ele>
        <time>2012-11-17T16:08:30Z</time>
      </trkpt>
      <trkpt lat="43.14712" lon="-0.25482">
        <ele>320</ele>
        <time>2012-11-17T16:08:35Z</time>
      </trkpt>
      <trkpt lat="43.14725" lon="-0.25474">
        <ele>320</ele>
        <time>2012-11-17T16:08:40Z</time>
      </trkpt>
      <trkpt lat="43.14738" lon="-0.25466">
        <ele>319.9</ele>
        <time>2012-11-17T16:08:45Z</time>
      </trkpt>
      <trkpt lat="43.14751" lon="-0.2546">
        <ele>320</ele>
        <time>2012-11-17T16:08:50Z</time>
      </trkpt>
      <trkpt lat="43.14764" lon="-0.25452">
        <ele>320.5</ele>
        <time>2012-11-17T16:08:55Z</time>
      </trkpt>
      <trkpt lat="43.14777" lon="-0.25444">
        <ele>321</ele>
        <time>2012-11-17T16:09:00Z</time>
      </trkpt>
      <trkpt lat="43.1479" lon="-0.25437">
        <ele>321</ele>
        <time>2012-11-17T16:09:05Z</time>
      </trkpt>
      <trkpt lat="43.14802" lon="-0.25429">
        <ele>321</ele>
        <time>2012-11-17T16:09:10Z</time>
      </trkpt>
      <trkpt lat="43.14814" lon="-0.25418">
        <ele>321</ele>
        <time>2012-11-17T16:09:15Z</time>
      </trkpt>
      <trkpt lat="43.14825" lon="-0.25407">
        <ele>321.3</ele>
        <time>2012-11-17T16:09:20Z</time>
      </trkpt>
      <trkpt lat="43.14837" lon="-0.25396">
        <ele>321.8</ele>
        <time>2012-11-17T16:09:25Z</time>
      </trkpt>
      <trkpt lat="43.14847" lon="-0.25384">
        <ele>322.2</ele>
        <time>2012-11-17T16:09:30Z</time>
      </trkpt>
      <trkpt lat="43.14856" lon="-0.25372">
        <ele>322.6</ele>
        <time>2012-11-17T16:09:35Z</time>
      </trkpt>
      <trkpt lat="43.14866" lon="-0.2536">
        <ele>323</ele>
        <time>2012-11-17T16:09:40Z</time>
      </trkpt>
      <trkpt lat="43.14876" lon="-0.25349">
        <ele>323.4</ele>
        <time>2012-11-17T16:09:45Z</time>
      </trkpt>
      <trkpt lat="43.14885" lon="-0.25337">
        <ele>323.9</ele>
        <time>2012-11-17T16:09:50Z</time>
      </trkpt>
      <trkpt lat="43.14895" lon="-0.25325">
        <ele>323.8</ele>
        <time>2012-11-17T16:09:55Z</time>
      </trkpt>
      <trkpt lat="43.14905" lon="-0.25315">
        <ele>323.8</ele>
        <time>2012-11-17T16:10:00Z</time>
      </trkpt>
      <trkpt lat="43.14916" lon="-0.25302">
        <ele>324.1</ele>
        <time>2012-11-17T16:10:05Z</time>
      </trkpt>
      <trkpt lat="43.14924" lon="-0.25288">
        <ele>324.4</ele>
        <time>2012-11-17T16:10:10Z</time>
      </trkpt>
      <trkpt lat="43.14932" lon="-0.25274">
        <ele>324.5</ele>
        <time>2012-11-17T16:10:15Z</time>
      </trkpt>
      <trkpt lat="43.14938" lon="-0.25261">
        <ele>324.7</ele>
        <time>2012-11-17T16:10:20Z</time>
      </trkpt>
      <trkpt lat="43.14945" lon="-0.25246">
        <ele>325.2</ele>
        <time>2012-11-17T16:10:25Z</time>
      </trkpt>
      <trkpt lat="43.14953" lon="-0.25235">
        <ele>325.9</ele>
        <time>2012-11-17T16:10:30Z</time>
      </trkpt>
      <trkpt lat="43.14961" lon="-0.25221">
        <ele>326.6</ele>
        <time>2012-11-17T16:10:35Z</time>
      </trkpt>
      <trkpt lat="43.14969" lon="-0.25206">
        <ele>326.4</ele>
        <time>2012-11-17T16:10:40Z</time>
      </trkpt>
      <trkpt lat="43.14977" lon="-0.25192">
        <ele>326.7</ele>
        <time>2012-11-17T16:10:45Z</time>
      </trkpt>
      <trkpt lat="43.14986" lon="-0.25179">
        <ele>328.1</ele>
        <time>2012-11-17T16:10:50Z</time>
      </trkpt>
      <trkpt lat="43.14994" lon="-0.25167">
        <ele>328.8</ele>
        <time>2012-11-17T16:10:55Z</time>
      </trkpt>
      <trkpt lat="43.15004" lon="-0.25153">
        <ele>329.8</ele>
        <time>2012-11-17T16:11:00Z</time>
      </trkpt>
      <trkpt lat="43.1501" lon="-0.25143">
        <ele>330.6</ele>
        <time>2012-11-17T16:11:05Z</time>
      </trkpt>
      <trkpt lat="43.1502" lon="-0.25131">
        <ele>331.9</ele>
        <time>2012-11-17T16:11:10Z</time>
      </trkpt>
      <trkpt lat="43.15028" lon="-0.25121">
        <ele>333.2</ele>
        <time>2012-11-17T16:11:15Z</time>
      </trkpt>
      <trkpt lat="43.15036" lon="-0.2511">
        <ele>334.7</ele>
        <time>2012-11-17T16:11:20Z</time>
      </trkpt>
      <trkpt lat="43.15044" lon="-0.25099">
        <ele>336.3</ele>
        <time>2012-11-17T16:11:25Z</time>
      </trkpt>
      <trkpt lat="43.15049" lon="-0.25086">
        <ele>338.1</ele>
        <time>2012-11-17T16:11:30Z</time>
      </trkpt>
      <trkpt lat="43.15046" lon="-0.25074">
        <ele>339</ele>
        <time>2012-11-17T16:11:35Z</time>
      </trkpt>
      <trkpt lat="43.15039" lon="-0.25063">
        <ele>339.4</ele>
        <time>2012-11-17T16:11:40Z</time>
      </trkpt>
      <trkpt lat="43.1503" lon="-0.25048">
        <ele>338.7</ele>
        <time>2012-11-17T16:11:45Z</time>
      </trkpt>
      <trkpt lat="43.15024" lon="-0.25035">
        <ele>338.3</ele>
        <time>2012-11-17T16:11:50Z</time>
      </trkpt>
      <trkpt lat="43.15017" lon="-0.25019">
        <ele>338.1</ele>
        <time>2012-11-17T16:11:55Z</time>
      </trkpt>
      <trkpt lat="43.15013" lon="-0.25003">
        <ele>337.8</ele>
        <time>2012-11-17T16:12:00Z</time>
      </trkpt>
      <trkpt lat="43.15012" lon="-0.24987">
        <ele>337.1</ele>
        <time>2012-11-17T16:12:05Z</time>
      </trkpt>
      <trkpt lat="43.15019" lon="-0.24973">
        <ele>337</ele>
        <time>2012-11-17T16:12:10Z</time>
      </trkpt>
      <trkpt lat="43.15029" lon="-0.24963">
        <ele>336.8</ele>
        <time>2012-11-17T16:12:15Z</time>
      </trkpt>
      <trkpt lat="43.15038" lon="-0.24952">
        <ele>336.8</ele>
        <time>2012-11-17T16:12:20Z</time>
      </trkpt>
      <trkpt lat="43.15048" lon="-0.24939">
        <ele>336.5</ele>
        <time>2012-11-17T16:12:25Z</time>
      </trkpt>
      <trkpt lat="43.1505" lon="-0.24921">
        <ele>335.2</ele>
        <time>2012-11-17T16:12:30Z</time>
      </trkpt>
      <trkpt lat="43.15043" lon="-0.24903">
        <ele>335.1</ele>
        <time>2012-11-17T16:12:35Z</time>
      </trkpt>
      <trkpt lat="43.1504" lon="-0.24892">
        <ele>335.7</ele>
        <time>2012-11-17T16:12:40Z</time>
      </trkpt>
      <trkpt lat="43.15038" lon="-0.24878">
        <ele>337.1</ele>
        <time>2012-11-17T16:12:45Z</time>
      </trkpt>
      <trkpt lat="43.15036" lon="-0.2486">
        <ele>338.8</ele>
        <time>2012-11-17T16:12:50Z</time>
      </trkpt>
      <trkpt lat="43.15035" lon="-0.24843">
        <ele>339.6</ele>
        <time>2012-11-17T16:12:55Z</time>
      </trkpt>
      <trkpt lat="43.15033" lon="-0.24832">
        <ele>339.9</ele>
        <time>2012-11-17T16:13:00Z</time>
      </trkpt>
      <trkpt lat="43.15033" lon="-0.24824">
        <ele>340</ele>
        <time>2012-11-17T16:13:05Z</time>
      </trkpt>
      <trkpt lat="43.15033" lon="-0.24819">
        <ele>340</ele>
        <time>2012-11-17T16:13:10Z</time>
      </trkpt>
      <trkpt lat="43.15033" lon="-0.24812">
        <ele>339.9</ele>
        <time>2012-11-17T16:13:15Z</time>
      </trkpt>
      <trkpt lat="43.15033" lon="-0.24801">
        <ele>339.7</ele>
        <time>2012-11-17T16:13:20Z</time>
      </trkpt>
      <trkpt lat="43.15034" lon="-0.2479">
        <ele>339.5</ele>
        <time>2012-11-17T16:13:25Z</time>
      </trkpt>
      <trkpt lat="43.15039" lon="-0.24777">
        <ele>339.8</ele>
        <time>2012-11-17T16:13:30Z</time>
      </trkpt>
      <trkpt lat="43.15046" lon="-0.24763">
        <ele>339.2</ele>
        <time>2012-11-17T16:13:35Z</time>
      </trkpt>
      <trkpt lat="43.15055" lon="-0.24748">
        <ele>339.4</ele>
        <time>2012-11-17T16:13:40Z</time>
      </trkpt>
      <trkpt lat="43.15063" lon="-0.24739">
        <ele>338.9</ele>
        <time>2012-11-17T16:13:45Z</time>
      </trkpt>
      <trkpt lat="43.15072" lon="-0.24728">
        <ele>338.3</ele>
        <time>2012-11-17T16:13:50Z</time>
      </trkpt>
      <trkpt lat="43.15079" lon="-0.24718">
        <ele>337.6</ele>
        <time>2012-11-17T16:13:55Z</time>
      </trkpt>
      <trkpt lat="43.15085" lon="-0.24713">
        <ele>337</ele>
        <time>2012-11-17T16:14:00Z</time>
      </trkpt>
      <trkpt lat="43.15086" lon="-0.24713">
        <ele>337.1</ele>
        <time>2012-11-17T16:14:05Z</time>
      </trkpt>
      <trkpt lat="43.15087" lon="-0.24717">
        <ele>337.9</ele>
        <time>2012-11-17T16:14:10Z</time>
      </trkpt>
      <trkpt lat="43.15088" lon="-0.24719">
        <ele>338.4</ele>
        <time>2012-11-17T16:14:15Z</time>
      </trkpt>
      <trkpt lat="43.15093" lon="-0.24711">
        <ele>336.9</ele>
        <time>2012-11-17T16:14:20Z</time>
      </trkpt>
      <trkpt lat="43.15103" lon="-0.24706">
        <ele>335.7</ele>
        <time>2012-11-17T16:14:25Z</time>
      </trkpt>
      <trkpt lat="43.15114" lon="-0.24705">
        <ele>336.1</ele>
        <time>2012-11-17T16:14:30Z</time>
      </trkpt>
      <trkpt lat="43.15126" lon="-0.24705">
        <ele>337.9</ele>
        <time>2012-11-17T16:14:35Z</time>
      </trkpt>
      <trkpt lat="43.15137" lon="-0.24703">
        <ele>339.3</ele>
        <time>2012-11-17T16:14:40Z</time>
      </trkpt>
      <trkpt lat="43.15149" lon="-0.24698">
        <ele>340.8</ele>
        <time>2012-11-17T16:14:45Z</time>
      </trkpt>
      <trkpt lat="43.15158" lon="-0.24694">
        <ele>342.1</ele>
        <time>2012-11-17T16:14:50Z</time>
      </trkpt>
      <trkpt lat="43.15166" lon="-0.24688">
        <ele>343.3</ele>
        <time>2012-11-17T16:14:55Z</time>
      </trkpt>
      <trkpt lat="43.15174" lon="-0.24681">
        <ele>344.1</ele>
        <time>2012-11-17T16:15:00Z</time>
      </trkpt>
      <trkpt lat="43.15182" lon="-0.24685">
        <ele>345.5</ele>
        <time>2012-11-17T16:15:05Z</time>
      </trkpt>
      <trkpt lat="43.15187" lon="-0.2469">
        <ele>346.5</ele>
        <time>2012-11-17T16:15:10Z</time>
      </trkpt>
      <trkpt lat="43.15194" lon="-0.24696">
        <ele>348.4</ele>
        <time>2012-11-17T16:15:15Z</time>
      </trkpt>
      <trkpt lat="43.15193" lon="-0.24705">
        <ele>350.1</ele>
        <time>2012-11-17T16:15:20Z</time>
      </trkpt>
      <trkpt lat="43.15192" lon="-0.24714">
        <ele>351.7</ele>
        <time>2012-11-17T16:15:25Z</time>
      </trkpt>
      <trkpt lat="43.15189" lon="-0.24722">
        <ele>353</ele>
        <time>2012-11-17T16:15:30Z</time>
      </trkpt>
      <trkpt lat="43.15184" lon="-0.24733">
        <ele>355.5</ele>
        <time>2012-11-17T16:15:35Z</time>
      </trkpt>
      <trkpt lat="43.15179" lon="-0.24739">
        <ele>356.6</ele>
        <time>2012-11-17T16:15:40Z</time>
      </trkpt>
      <trkpt lat="43.15174" lon="-0.24746">
        <ele>357.7</ele>
        <time>2012-11-17T16:15:45Z</time>
      </trkpt>
      <trkpt lat="43.15167" lon="-0.24755">
        <ele>358.5</ele>
        <time>2012-11-17T16:15:50Z</time>
      </trkpt>
      <trkpt lat="43.15166" lon="-0.24762">
        <ele>360.2</ele>
        <time>2012-11-17T16:15:55Z</time>
      </trkpt>
      <trkpt lat="43.15163" lon="-0.24767">
        <ele>361.1</ele>
        <time>2012-11-17T16:16:00Z</time>
      </trkpt>
      <trkpt lat="43.15158" lon="-0.24778">
        <ele>362.5</ele>
        <time>2012-11-17T16:16:05Z</time>
      </trkpt>
      <trkpt lat="43.15156" lon="-0.24787">
        <ele>363.5</ele>
        <time>2012-11-17T16:16:10Z</time>
      </trkpt>
      <trkpt lat="43.15162" lon="-0.2479">
        <ele>365.6</ele>
        <time>2012-11-17T16:16:15Z</time>
      </trkpt>
      <trkpt lat="43.15167" lon="-0.24792">
        <ele>367.7</ele>
        <time>2012-11-17T16:16:20Z</time>
      </trkpt>
      <trkpt lat="43.15174" lon="-0.24793">
        <ele>370.2</ele>
        <time>2012-11-17T16:16:25Z</time>
      </trkpt>
      <trkpt lat="43.15177" lon="-0.24794">
        <ele>371.3</ele>
        <time>2012-11-17T16:16:30Z</time>
      </trkpt>
      <trkpt lat="43.15178" lon="-0.24795">
        <ele>371.7</ele>
        <time>2012-11-17T16:16:35Z</time>
      </trkpt>
      <trkpt lat="43.1518" lon="-0.24798">
        <ele>373.2</ele>
        <time>2012-11-17T16:16:40Z</time>
      </trkpt>
      <trkpt lat="43.15184" lon="-0.24801">
        <ele>375.1</ele>
        <time>2012-11-17T16:16:45Z</time>
      </trkpt>
      <trkpt lat="43.15186" lon="-0.24803">
        <ele>376.4</ele>
        <time>2012-11-17T16:16:50Z</time>
      </trkpt>
      <trkpt lat="43.1519" lon="-0.24802">
        <ele>377.7</ele>
        <time>2012-11-17T16:16:55Z</time>
      </trkpt>
      <trkpt lat="43.15194" lon="-0.24805">
        <ele>379.4</ele>
        <time>2012-11-17T16:17:00Z</time>
      </trkpt>
      <trkpt lat="43.15196" lon="-0.24808">
        <ele>380.8</ele>
        <time>2012-11-17T16:17:05Z</time>
      </trkpt>
      <trkpt lat="43.152" lon="-0.24814">
        <ele>383.3</ele>
        <time>2012-11-17T16:17:10Z</time>
      </trkpt>
      <trkpt lat="43.15205" lon="-0.24815">
        <ele>385</ele>
        <time>2012-11-17T16:17:15Z</time>
      </trkpt>
      <trkpt lat="43.15209" lon="-0.24817">
        <ele>386.7</ele>
        <time>2012-11-17T16:17:20Z</time>
      </trkpt>
      <trkpt lat="43.15212" lon="-0.24816">
        <ele>387.6</ele>
        <time>2012-11-17T16:17:25Z</time>
      </trkpt>
      <trkpt lat="43.1521" lon="-0.24813">
        <ele>386.8</ele>
        <time>2012-11-17T16:17:30Z</time>
      </trkpt>
      <trkpt lat="43.1521" lon="-0.24813">
        <ele>386.5</ele>
        <time>2012-11-17T16:17:35Z</time>
      </trkpt>
      <trkpt lat="43.15211" lon="-0.24813">
        <ele>387.2</ele>
        <time>2012-11-17T16:17:40Z</time>
      </trkpt>
      <trkpt lat="43.15213" lon="-0.24815">
        <ele>388.1</ele>
        <time>2012-11-17T16:17:45Z</time>
      </trkpt>
      <trkpt lat="43.15216" lon="-0.24818">
        <ele>389.4</ele>
        <time>2012-11-17T16:17:50Z</time>
      </trkpt>
      <trkpt lat="43.15215" lon="-0.24823">
        <ele>389.9</ele>
        <time>2012-11-17T16:17:55Z</time>
      </trkpt>
      <trkpt lat="43.15215" lon="-0.24825">
        <ele>390.2</ele>
        <time>2012-11-17T16:18:00Z</time>
      </trkpt>
      <trkpt lat="43.15215" lon="-0.24827">
        <ele>390.5</ele>
        <time>2012-11-17T16:18:05Z</time>
      </trkpt>
      <trkpt lat="43.15219" lon="-0.24828">
        <ele>392.2</ele>
        <time>2012-11-17T16:18:10Z</time>
      </trkpt>
      <trkpt lat="43.15224" lon="-0.2483">
        <ele>393.9</ele>
        <time>2012-11-17T16:18:15Z</time>
      </trkpt>
      <trkpt lat="43.15226" lon="-0.2483">
        <ele>394.2</ele>
        <time>2012-11-17T16:18:20Z</time>
      </trkpt>
      <trkpt lat="43.15229" lon="-0.24828">
        <ele>394.5</ele>
        <time>2012-11-17T16:18:25Z</time>
      </trkpt>
      <trkpt lat="43.15234" lon="-0.2483">
        <ele>395.7</ele>
        <time>2012-11-17T16:18:30Z</time>
      </trkpt>
      <trkpt lat="43.15237" lon="-0.24835">
        <ele>396.6</ele>
        <time>2012-11-17T16:18:35Z</time>
      </trkpt>
      <trkpt lat="43.15239" lon="-0.24838">
        <ele>396.9</ele>
        <time>2012-11-17T16:18:40Z</time>
      </trkpt>
      <trkpt lat="43.15244" lon="-0.24829">
        <ele>397.5</ele>
        <time>2012-11-17T16:18:45Z</time>
      </trkpt>
      <trkpt lat="43.1525" lon="-0.24816">
        <ele>397.7</ele>
        <time>2012-11-17T16:18:50Z</time>
      </trkpt>
      <trkpt lat="43.15254" lon="-0.24817">
        <ele>398.1</ele>
        <time>2012-11-17T16:18:55Z</time>
      </trkpt>
      <trkpt lat="43.1526" lon="-0.24827">
        <ele>399.2</ele>
        <time>2012-11-17T16:19:00Z</time>
      </trkpt>
      <trkpt lat="43.15268" lon="-0.24836">
        <ele>400.3</ele>
        <time>2012-11-17T16:19:05Z</time>
      </trkpt>
      <trkpt lat="43.15287" lon="-0.24846">
        <ele>400.5</ele>
        <time>2012-11-17T16:19:10Z</time>
      </trkpt>
      <trkpt lat="43.15298" lon="-0.24843">
        <ele>400</ele>
        <time>2012-11-17T16:19:15Z</time>
      </trkpt>
      <trkpt lat="43.15309" lon="-0.24836">
        <ele>399</ele>
        <time>2012-11-17T16:19:20Z</time>
      </trkpt>
      <trkpt lat="43.15321" lon="-0.24836">
        <ele>396.3</ele>
        <time>2012-11-17T16:19:25Z</time>
      </trkpt>
      <trkpt lat="43.15329" lon="-0.24853">
        <ele>395.2</ele>
        <time>2012-11-17T16:19:30Z</time>
      </trkpt>
      <trkpt lat="43.15328" lon="-0.24869">
        <ele>395.9</ele>
        <time>2012-11-17T16:19:35Z</time>
      </trkpt>
      <trkpt lat="43.15329" lon="-0.2489">
        <ele>396.3</ele>
        <time>2012-11-17T16:19:40Z</time>
      </trkpt>
      <trkpt lat="43.15327" lon="-0.24906">
        <ele>395.3</ele>
        <time>2012-11-17T16:19:45Z</time>
      </trkpt>
      <trkpt lat="43.1532" lon="-0.24921">
        <ele>394.9</ele>
        <time>2012-11-17T16:19:50Z</time>
      </trkpt>
      <trkpt lat="43.1531" lon="-0.24934">
        <ele>395</ele>
        <time>2012-11-17T16:19:55Z</time>
      </trkpt>
      <trkpt lat="43.15299" lon="-0.24945">
        <ele>395.2</ele>
        <time>2012-11-17T16:20:00Z</time>
      </trkpt>
      <trkpt lat="43.15287" lon="-0.24952">
        <ele>394.8</ele>
        <time>2012-11-17T16:20:05Z</time>
      </trkpt>
      <trkpt lat="43.15274" lon="-0.24957">
        <ele>395.1</ele>
        <time>2012-11-17T16:20:10Z</time>
      </trkpt>
      <trkpt lat="43.15262" lon="-0.24967">
        <ele>394.4</ele>
        <time>2012-11-17T16:20:15Z</time>
      </trkpt>
      <trkpt lat="43.1525" lon="-0.24975">
        <ele>393.8</ele>
        <time>2012-11-17T16:20:20Z</time>
      </trkpt>
      <trkpt lat="43.15238" lon="-0.24984">
        <ele>392.4</ele>
        <time>2012-11-17T16:20:25Z</time>
      </trkpt>
      <trkpt lat="43.15235" lon="-0.24994">
        <ele>391</ele>
        <time>2012-11-17T16:20:30Z</time>
      </trkpt>
      <trkpt lat="43.15236" lon="-0.25001">
        <ele>390.3</ele>
        <time>2012-11-17T16:20:35Z</time>
      </trkpt>
      <trkpt lat="43.15239" lon="-0.25016">
        <ele>388.2</ele>
        <time>2012-11-17T16:20:40Z</time>
      </trkpt>
      <trkpt lat="43.1524" lon="-0.25032">
        <ele>385.4</ele>
        <time>2012-11-17T16:20:45Z</time>
      </trkpt>
      <trkpt lat="43.15241" lon="-0.25047">
        <ele>382.4</ele>
        <time>2012-11-17T16:20:50Z</time>
      </trkpt>
      <trkpt lat="43.15241" lon="-0.25061">
        <ele>379.5</ele>
        <time>2012-11-17T16:20:55Z</time>
      </trkpt>
      <trkpt lat="43.15244" lon="-0.25068">
        <ele>378.1</ele>
        <time>2012-11-17T16:21:00Z</time>
      </trkpt>
      <trkpt lat="43.15259" lon="-0.25067">
        <ele>377.6</ele>
        <time>2012-11-17T16:21:05Z</time>
      </trkpt>
      <trkpt lat="43.15269" lon="-0.25071">
        <ele>375.7</ele>
        <time>2012-11-17T16:21:10Z</time>
      </trkpt>
      <trkpt lat="43.15281" lon="-0.25073">
        <ele>373.6</ele>
        <time>2012-11-17T16:21:15Z</time>
      </trkpt>
      <trkpt lat="43.15286" lon="-0.25073">
        <ele>372.6</ele>
        <time>2012-11-17T16:21:20Z</time>
      </trkpt>
      <trkpt lat="43.15285" lon="-0.25073">
        <ele>372.7</ele>
        <time>2012-11-17T16:21:25Z</time>
      </trkpt>
      <trkpt lat="43.15284" lon="-0.25073">
        <ele>372.9</ele>
        <time>2012-11-17T16:21:30Z</time>
      </trkpt>
      <trkpt lat="43.15284" lon="-0.25073">
        <ele>372.9</ele>
        <time>2012-11-17T16:21:35Z</time>
      </trkpt>
      <trkpt lat="43.15297" lon="-0.25072">
        <ele>370.7</ele>
        <time>2012-11-17T16:21:40Z</time>
      </trkpt>
      <trkpt lat="43.15313" lon="-0.25069">
        <ele>368.3</ele>
        <time>2012-11-17T16:21:45Z</time>
      </trkpt>
      <trkpt lat="43.15325" lon="-0.25075">
        <ele>365.1</ele>
        <time>2012-11-17T16:21:50Z</time>
      </trkpt>
      <trkpt lat="43.15326" lon="-0.25098">
        <ele>359.5</ele>
        <time>2012-11-17T16:21:55Z</time>
      </trkpt>
      <trkpt lat="43.15328" lon="-0.25122">
        <ele>353.2</ele>
        <time>2012-11-17T16:22:00Z</time>
      </trkpt>
      <trkpt lat="43.15329" lon="-0.25144">
        <ele>347.7</ele>
        <time>2012-11-17T16:22:05Z</time>
      </trkpt>
      <trkpt lat="43.15333" lon="-0.25165">
        <ele>342.5</ele>
        <time>2012-11-17T16:22:10Z</time>
      </trkpt>
      <trkpt lat="43.15342" lon="-0.2518">
        <ele>339.1</ele>
        <time>2012-11-17T16:22:15Z</time>
      </trkpt>
      <trkpt lat="43.15349" lon="-0.25197">
        <ele>336.2</ele>
        <time>2012-11-17T16:22:20Z</time>
      </trkpt>
      <trkpt lat="43.15362" lon="-0.25205">
        <ele>334.2</ele>
        <time>2012-11-17T16:22:25Z</time>
      </trkpt>
      <trkpt lat="43.15377" lon="-0.25192">
        <ele>334.7</ele>
        <time>2012-11-17T16:22:30Z</time>
      </trkpt>
      <trkpt lat="43.15388" lon="-0.25178">
        <ele>335.3</ele>
        <time>2012-11-17T16:22:35Z</time>
      </trkpt>
      <trkpt lat="43.15395" lon="-0.25169">
        <ele>335.6</ele>
        <time>2012-11-17T16:22:40Z</time>
      </trkpt>
      <trkpt lat="43.15405" lon="-0.25164">
        <ele>336</ele>
        <time>2012-11-17T16:22:45Z</time>
      </trkpt>
      <trkpt lat="43.15417" lon="-0.25154">
        <ele>337.2</ele>
        <time>2012-11-17T16:22:50Z</time>
      </trkpt>
      <trkpt lat="43.15427" lon="-0.25144">
        <ele>337.8</ele>
        <time>2012-11-17T16:22:55Z</time>
      </trkpt>
      <trkpt lat="43.15437" lon="-0.25132">
        <ele>338.5</ele>
        <time>2012-11-17T16:23:00Z</time>
      </trkpt>
      <trkpt lat="43.15446" lon="-0.2512">
        <ele>340</ele>
        <time>2012-11-17T16:23:05Z</time>
      </trkpt>
      <trkpt lat="43.15454" lon="-0.25107">
        <ele>341</ele>
        <time>2012-11-17T16:23:10Z</time>
      </trkpt>
      <trkpt lat="43.15461" lon="-0.25093">
        <ele>341.9</ele>
        <time>2012-11-17T16:23:15Z</time>
      </trkpt>
      <trkpt lat="43.15468" lon="-0.25081">
        <ele>342.4</ele>
        <time>2012-11-17T16:23:20Z</time>
      </trkpt>
      <trkpt lat="43.15474" lon="-0.25068">
        <ele>343.4</ele>
        <time>2012-11-17T16:23:25Z</time>
      </trkpt>
      <trkpt lat="43.15481" lon="-0.25056">
        <ele>344.2</ele>
        <time>2012-11-17T16:23:30Z</time>
      </trkpt>
      <trkpt lat="43.15488" lon="-0.25042">
        <ele>344.8</ele>
        <time>2012-11-17T16:23:35Z</time>
      </trkpt>
      <trkpt lat="43.15493" lon="-0.25032">
        <ele>345.1</ele>
        <time>2012-11-17T16:23:40Z</time>
      </trkpt>
      <trkpt lat="43.15503" lon="-0.25016">
        <ele>345.4</ele>
        <time>2012-11-17T16:23:45Z</time>
      </trkpt>
      <trkpt lat="43.15511" lon="-0.25002">
        <ele>345.8</ele>
        <time>2012-11-17T16:23:50Z</time>
      </trkpt>
      <trkpt lat="43.15519" lon="-0.24987">
        <ele>346.2</ele>
        <time>2012-11-17T16:23:55Z</time>
      </trkpt>
      <trkpt lat="43.15527" lon="-0.24972">
        <ele>346.3</ele>
        <time>2012-11-17T16:24:00Z</time>
      </trkpt>
      <trkpt lat="43.15533" lon="-0.24959">
        <ele>347.4</ele>
        <time>2012-11-17T16:24:05Z</time>
      </trkpt>
      <trkpt lat="43.15539" lon="-0.24945">
        <ele>348.9</ele>
        <time>2012-11-17T16:24:10Z</time>
      </trkpt>
      <trkpt lat="43.15543" lon="-0.24933">
        <ele>349.6</ele>
        <time>2012-11-17T16:24:15Z</time>
      </trkpt>
      <trkpt lat="43.15551" lon="-0.24919">
        <ele>350.4</ele>
        <time>2012-11-17T16:24:20Z</time>
      </trkpt>
      <trkpt lat="43.15558" lon="-0.24905">
        <ele>351.1</ele>
        <time>2012-11-17T16:24:25Z</time>
      </trkpt>
      <trkpt lat="43.15565" lon="-0.24892">
        <ele>352</ele>
        <time>2012-11-17T16:24:30Z</time>
      </trkpt>
      <trkpt lat="43.15571" lon="-0.24876">
        <ele>352.6</ele>
        <time>2012-11-17T16:24:35Z</time>
      </trkpt>
      <trkpt lat="43.15577" lon="-0.24861">
        <ele>352.7</ele>
        <time>2012-11-17T16:24:40Z</time>
      </trkpt>
      <trkpt lat="43.15587" lon="-0.24849">
        <ele>351.2</ele>
        <time>2012-11-17T16:24:45Z</time>
      </trkpt>
      <trkpt lat="43.15594" lon="-0.24835">
        <ele>349.9</ele>
        <time>2012-11-17T16:24:50Z</time>
      </trkpt>
      <trkpt lat="43.15604" lon="-0.24825">
        <ele>347.5</ele>
        <time>2012-11-17T16:24:55Z</time>
      </trkpt>
      <trkpt lat="43.15615" lon="-0.2482">
        <ele>345.7</ele>
        <time>2012-11-17T16:25:00Z</time>
      </trkpt>
      <trkpt lat="43.1563" lon="-0.24818">
        <ele>344.1</ele>
        <time>2012-11-17T16:25:05Z</time>
      </trkpt>
      <trkpt lat="43.15646" lon="-0.24819">
        <ele>342.7</ele>
        <time>2012-11-17T16:25:10Z</time>
      </trkpt>
      <trkpt lat="43.15657" lon="-0.24822">
        <ele>341.5</ele>
        <time>2012-11-17T16:25:15Z</time>
      </trkpt>
      <trkpt lat="43.15672" lon="-0.24828">
        <ele>340</ele>
        <time>2012-11-17T16:25:20Z</time>
      </trkpt>
      <trkpt lat="43.15686" lon="-0.24835">
        <ele>338</ele>
        <time>2012-11-17T16:25:25Z</time>
      </trkpt>
      <trkpt lat="43.15697" lon="-0.24843">
        <ele>336.2</ele>
        <time>2012-11-17T16:25:30Z</time>
      </trkpt>
      <trkpt lat="43.15708" lon="-0.24851">
        <ele>334.6</ele>
        <time>2012-11-17T16:25:35Z</time>
      </trkpt>
      <trkpt lat="43.15721" lon="-0.24862">
        <ele>333.3</ele>
        <time>2012-11-17T16:25:40Z</time>
      </trkpt>
      <trkpt lat="43.15728" lon="-0.24867">
        <ele>333</ele>
        <time>2012-11-17T16:25:45Z</time>
      </trkpt>
      <trkpt lat="43.1573" lon="-0.2487">
        <ele>333.1</ele>
        <time>2012-11-17T16:25:50Z</time>
      </trkpt>
      <trkpt lat="43.15737" lon="-0.24869">
        <ele>332.5</ele>
        <time>2012-11-17T16:25:55Z</time>
      </trkpt>
      <trkpt lat="43.15739" lon="-0.24863">
        <ele>332</ele>
        <time>2012-11-17T16:26:00Z</time>
      </trkpt>
      <trkpt lat="43.15733" lon="-0.24851">
        <ele>329.8</ele>
        <time>2012-11-17T16:26:05Z</time>
      </trkpt>
      <trkpt lat="43.15725" lon="-0.24843">
        <ele>328.8</ele>
        <time>2012-11-17T16:26:10Z</time>
      </trkpt>
      <trkpt lat="43.15714" lon="-0.24825">
        <ele>328.2</ele>
        <time>2012-11-17T16:26:15Z</time>
      </trkpt>
      <trkpt lat="43.15707" lon="-0.24803">
        <ele>326.9</ele>
        <time>2012-11-17T16:26:20Z</time>
      </trkpt>
      <trkpt lat="43.15706" lon="-0.24781">
        <ele>325.5</ele>
        <time>2012-11-17T16:26:25Z</time>
      </trkpt>
      <trkpt lat="43.15708" lon="-0.24767">
        <ele>324.1</ele>
        <time>2012-11-17T16:26:30Z</time>
      </trkpt>
      <trkpt lat="43.15711" lon="-0.24769">
        <ele>323.5</ele>
        <time>2012-11-17T16:26:35Z</time>
      </trkpt>
      <trkpt lat="43.15714" lon="-0.24769">
        <ele>322.8</ele>
        <time>2012-11-17T16:26:40Z</time>
      </trkpt>
      <trkpt lat="43.15716" lon="-0.24769">
        <ele>322.3</ele>
        <time>2012-11-17T16:26:45Z</time>
      </trkpt>
      <trkpt lat="43.15718" lon="-0.24769">
        <ele>322</ele>
        <time>2012-11-17T16:26:50Z</time>
      </trkpt>
      <trkpt lat="43.15718" lon="-0.24768">
        <ele>321.9</ele>
        <time>2012-11-17T16:26:55Z</time>
      </trkpt>
      <trkpt lat="43.15714" lon="-0.24753">
        <ele>322.2</ele>
        <time>2012-11-17T16:27:00Z</time>
      </trkpt>
      <trkpt lat="43.15708" lon="-0.24736">
        <ele>321.3</ele>
        <time>2012-11-17T16:27:05Z</time>
      </trkpt>
      <trkpt lat="43.15699" lon="-0.24719">
        <ele>320.2</ele>
        <time>2012-11-17T16:27:10Z</time>
      </trkpt>
      <trkpt lat="43.15687" lon="-0.24703">
        <ele>318.2</ele>
        <time>2012-11-17T16:27:15Z</time>
      </trkpt>
      <trkpt lat="43.15686" lon="-0.24689">
        <ele>315.9</ele>
        <time>2012-11-17T16:27:20Z</time>
      </trkpt>
      <trkpt lat="43.15686" lon="-0.24671">
        <ele>313.5</ele>
        <time>2012-11-17T16:27:25Z</time>
      </trkpt>
      <trkpt lat="43.15686" lon="-0.24654">
        <ele>312</ele>
        <time>2012-11-17T16:27:30Z</time>
      </trkpt>
      <trkpt lat="43.15685" lon="-0.24635">
        <ele>310.4</ele>
        <time>2012-11-17T16:27:35Z</time>
      </trkpt>
      <trkpt lat="43.15684" lon="-0.24614">
        <ele>309.2</ele>
        <time>2012-11-17T16:27:40Z</time>
      </trkpt>
      <trkpt lat="43.15684" lon="-0.24598">
        <ele>308.7</ele>
        <time>2012-11-17T16:27:45Z</time>
      </trkpt>
      <trkpt lat="43.15685" lon="-0.24575">
        <ele>307.5</ele>
        <time>2012-11-17T16:27:50Z</time>
      </trkpt>
      <trkpt lat="43.15686" lon="-0.24556">
        <ele>306.2</ele>
        <time>2012-11-17T16:27:55Z</time>
      </trkpt>
      <trkpt lat="43.15687" lon="-0.24538">
        <ele>305.5</ele>
        <time>2012-11-17T16:28:00Z</time>
      </trkpt>
      <trkpt lat="43.15682" lon="-0.24528">
        <ele>303.3</ele>
        <time>2012-11-17T16:28:05Z</time>
      </trkpt>
      <trkpt lat="43.15677" lon="-0.2454">
        <ele>303</ele>
        <time>2012-11-17T16:28:10Z</time>
      </trkpt>
      <trkpt lat="43.15672" lon="-0.24554">
        <ele>303.1</ele>
        <time>2012-11-17T16:28:15Z</time>
      </trkpt>
      <trkpt lat="43.15666" lon="-0.24568">
        <ele>303.2</ele>
        <time>2012-11-17T16:28:20Z</time>
      </trkpt>
      <trkpt lat="43.15662" lon="-0.24583">
        <ele>303.6</ele>
        <time>2012-11-17T16:28:25Z</time>
      </trkpt>
      <trkpt lat="43.15658" lon="-0.24599">
        <ele>303.2</ele>
        <time>2012-11-17T16:28:30Z</time>
      </trkpt>
      <trkpt lat="43.15647" lon="-0.246">
        <ele>300.3</ele>
        <time>2012-11-17T16:28:35Z</time>
      </trkpt>
      <trkpt lat="43.15644" lon="-0.24585">
        <ele>298.6</ele>
        <time>2012-11-17T16:28:40Z</time>
      </trkpt>
      <trkpt lat="43.15645" lon="-0.24568">
        <ele>298.3</ele>
        <time>2012-11-17T16:28:45Z</time>
      </trkpt>
      <trkpt lat="43.15648" lon="-0.2455">
        <ele>298.3</ele>
        <time>2012-11-17T16:28:50Z</time>
      </trkpt>
      <trkpt lat="43.15649" lon="-0.24527">
        <ele>297</ele>
        <time>2012-11-17T16:28:55Z</time>
      </trkpt>
      <trkpt lat="43.1565" lon="-0.2451">
        <ele>295.5</ele>
        <time>2012-11-17T16:29:00Z</time>
      </trkpt>
      <trkpt lat="43.15651" lon="-0.24493">
        <ele>293.6</ele>
        <time>2012-11-17T16:29:05Z</time>
      </trkpt>
      <trkpt lat="43.15653" lon="-0.24476">
        <ele>291.9</ele>
        <time>2012-11-17T16:29:10Z</time>
      </trkpt>
      <trkpt lat="43.15663" lon="-0.24465">
        <ele>290.8</ele>
        <time>2012-11-17T16:29:15Z</time>
      </trkpt>
      <trkpt lat="43.15668" lon="-0.24455">
        <ele>289.7</ele>
        <time>2012-11-17T16:29:20Z</time>
      </trkpt>
      <trkpt lat="43.15668" lon="-0.24435">
        <ele>287.1</ele>
        <time>2012-11-17T16:29:25Z</time>
      </trkpt>
      <trkpt lat="43.15682" lon="-0.24425">
        <ele>286.2</ele>
        <time>2012-11-17T16:29:30Z</time>
      </trkpt>
      <trkpt lat="43.15696" lon="-0.24412">
        <ele>284.4</ele>
        <time>2012-11-17T16:29:35Z</time>
      </trkpt>
      <trkpt lat="43.15707" lon="-0.24401">
        <ele>282.7</ele>
        <time>2012-11-17T16:29:40Z</time>
      </trkpt>
      <trkpt lat="43.15717" lon="-0.24394">
        <ele>281.6</ele>
        <time>2012-11-17T16:29:45Z</time>
      </trkpt>
      <trkpt lat="43.15725" lon="-0.24406">
        <ele>282.1</ele>
        <time>2012-11-17T16:29:50Z</time>
      </trkpt>
      <trkpt lat="43.15732" lon="-0.24415">
        <ele>282.1</ele>
        <time>2012-11-17T16:29:55Z</time>
      </trkpt>
      <trkpt lat="43.15742" lon="-0.24423">
        <ele>282.7</ele>
        <time>2012-11-17T16:30:00Z</time>
      </trkpt>
      <trkpt lat="43.15751" lon="-0.2443">
        <ele>283.2</ele>
        <time>2012-11-17T16:30:05Z</time>
      </trkpt>
      <trkpt lat="43.15762" lon="-0.24437">
        <ele>282.9</ele>
        <time>2012-11-17T16:30:10Z</time>
      </trkpt>
      <trkpt lat="43.15771" lon="-0.2444">
        <ele>282</ele>
        <time>2012-11-17T16:30:15Z</time>
      </trkpt>
      <trkpt lat="43.15784" lon="-0.24445">
        <ele>281.9</ele>
        <time>2012-11-17T16:30:20Z</time>
      </trkpt>
      <trkpt lat="43.15798" lon="-0.24447">
        <ele>281.7</ele>
        <time>2012-11-17T16:30:25Z</time>
      </trkpt>
      <trkpt lat="43.15816" lon="-0.24449">
        <ele>281.6</ele>
        <time>2012-11-17T16:30:30Z</time>
      </trkpt>
      <trkpt lat="43.15832" lon="-0.24449">
        <ele>281.5</ele>
        <time>2012-11-17T16:30:35Z</time>
      </trkpt>
      <trkpt lat="43.15844" lon="-0.24451">
        <ele>281.7</ele>
        <time>2012-11-17T16:30:40Z</time>
      </trkpt>
      <trkpt lat="43.15858" lon="-0.24454">
        <ele>282</ele>
        <time>2012-11-17T16:30:45Z</time>
      </trkpt>
      <trkpt lat="43.15871" lon="-0.24456">
        <ele>282.1</ele>
        <time>2012-11-17T16:30:50Z</time>
      </trkpt>
      <trkpt lat="43.15885" lon="-0.24459">
        <ele>282.1</ele>
        <time>2012-11-17T16:30:55Z</time>
      </trkpt>
      <trkpt lat="43.159" lon="-0.24461">
        <ele>281.8</ele>
        <time>2012-11-17T16:31:00Z</time>
      </trkpt>
      <trkpt lat="43.15914" lon="-0.24464">
        <ele>281.5</ele>
        <time>2012-11-17T16:31:05Z</time>
      </trkpt>
      <trkpt lat="43.15929" lon="-0.24466">
        <ele>281.7</ele>
        <time>2012-11-17T16:31:10Z</time>
      </trkpt>
      <trkpt lat="43.15942" lon="-0.24467">
        <ele>281.8</ele>
        <time>2012-11-17T16:31:15Z</time>
      </trkpt>
      <trkpt lat="43.15955" lon="-0.24469">
        <ele>281.9</ele>
        <time>2012-11-17T16:31:20Z</time>
      </trkpt>
      <trkpt lat="43.15967" lon="-0.24471">
        <ele>281.9</ele>
        <time>2012-11-17T16:31:25Z</time>
      </trkpt>
      <trkpt lat="43.1598" lon="-0.2447">
        <ele>281.7</ele>
        <time>2012-11-17T16:31:30Z</time>
      </trkpt>
      <trkpt lat="43.15995" lon="-0.24468">
        <ele>281.1</ele>
        <time>2012-11-17T16:31:35Z</time>
      </trkpt>
      <trkpt lat="43.16008" lon="-0.24469">
        <ele>281.1</ele>
        <time>2012-11-17T16:31:40Z</time>
      </trkpt>
      <trkpt lat="43.16017" lon="-0.2447">
        <ele>281.5</ele>
        <time>2012-11-17T16:31:45Z</time>
      </trkpt>
      <trkpt lat="43.16027" lon="-0.2447">
        <ele>281.8</ele>
        <time>2012-11-17T16:31:50Z</time>
      </trkpt>
      <trkpt lat="43.16037" lon="-0.24471">
        <ele>281.6</ele>
        <time>2012-11-17T16:31:55Z</time>
      </trkpt>
      <trkpt lat="43.16048" lon="-0.24469">
        <ele>281.2</ele>
        <time>2012-11-17T16:32:00Z</time>
      </trkpt>
      <trkpt lat="43.16055" lon="-0.24469">
        <ele>281</ele>
        <time>2012-11-17T16:32:05Z</time>
      </trkpt>
      <trkpt lat="43.16065" lon="-0.24472">
        <ele>281</ele>
        <time>2012-11-17T16:32:10Z</time>
      </trkpt>
      <trkpt lat="43.16079" lon="-0.2447">
        <ele>280.9</ele>
        <time>2012-11-17T16:32:15Z</time>
      </trkpt>
      <trkpt lat="43.16094" lon="-0.24468">
        <ele>280.8</ele>
        <time>2012-11-17T16:32:20Z</time>
      </trkpt>
      <trkpt lat="43.16109" lon="-0.24465">
        <ele>280.7</ele>
        <time>2012-11-17T16:32:25Z</time>
      </trkpt>
      <trkpt lat="43.16123" lon="-0.24458">
        <ele>280.3</ele>
        <time>2012-11-17T16:32:30Z</time>
      </trkpt>
      <trkpt lat="43.1613" lon="-0.24438">
        <ele>279.1</ele>
        <time>2012-11-17T16:32:35Z</time>
      </trkpt>
      <trkpt lat="43.16132" lon="-0.24423">
        <ele>278.5</ele>
        <time>2012-11-17T16:32:40Z</time>
      </trkpt>
      <trkpt lat="43.16131" lon="-0.24405">
        <ele>278.2</ele>
        <time>2012-11-17T16:32:45Z</time>
      </trkpt>
      <trkpt lat="43.16131" lon="-0.24389">
        <ele>278</ele>
        <time>2012-11-17T16:32:50Z</time>
      </trkpt>
      <trkpt lat="43.1613" lon="-0.24375">
        <ele>277.6</ele>
        <time>2012-11-17T16:32:55Z</time>
      </trkpt>
      <trkpt lat="43.16131" lon="-0.24365">
        <ele>277.4</ele>
        <time>2012-11-17T16:33:00Z</time>
      </trkpt>
      <trkpt lat="43.16134" lon="-0.24349">
        <ele>276.8</ele>
        <time>2012-11-17T16:33:05Z</time>
      </trkpt>
      <trkpt lat="43.16135" lon="-0.2433">
        <ele>275.9</ele>
        <time>2012-11-17T16:33:10Z</time>
      </trkpt>
      <trkpt lat="43.16137" lon="-0.24309">
        <ele>274.3</ele>
        <time>2012-11-17T16:33:15Z</time>
      </trkpt>
      <trkpt lat="43.16137" lon="-0.24287">
        <ele>272.7</ele>
        <time>2012-11-17T16:33:20Z</time>
      </trkpt>
      <trkpt lat="43.16136" lon="-0.2427">
        <ele>272.1</ele>
        <time>2012-11-17T16:33:25Z</time>
      </trkpt>
      <trkpt lat="43.16135" lon="-0.24244">
        <ele>272</ele>
        <time>2012-11-17T16:33:30Z</time>
      </trkpt>
      <trkpt lat="43.16135" lon="-0.24224">
        <ele>272</ele>
        <time>2012-11-17T16:33:35Z</time>
      </trkpt>
      <trkpt lat="43.16134" lon="-0.24201">
        <ele>271.4</ele>
        <time>2012-11-17T16:33:40Z</time>
      </trkpt>
      <trkpt lat="43.16133" lon="-0.24181">
        <ele>271.1</ele>
        <time>2012-11-17T16:33:45Z</time>
      </trkpt>
      <trkpt lat="43.16133" lon="-0.24161">
        <ele>271</ele>
        <time>2012-11-17T16:33:50Z</time>
      </trkpt>
      <trkpt lat="43.16133" lon="-0.2414">
        <ele>270.8</ele>
        <time>2012-11-17T16:33:55Z</time>
      </trkpt>
      <trkpt lat="43.16135" lon="-0.24119">
        <ele>269.5</ele>
        <time>2012-11-17T16:34:00Z</time>
      </trkpt>
      <trkpt lat="43.16142" lon="-0.24098">
        <ele>268.5</ele>
        <time>2012-11-17T16:34:05Z</time>
      </trkpt>
      <trkpt lat="43.16143" lon="-0.24077">
        <ele>268.2</ele>
        <time>2012-11-17T16:34:10Z</time>
      </trkpt>
      <trkpt lat="43.16136" lon="-0.24059">
        <ele>268.9</ele>
        <time>2012-11-17T16:34:15Z</time>
      </trkpt>
      <trkpt lat="43.16126" lon="-0.24049">
        <ele>269</ele>
        <time>2012-11-17T16:34:20Z</time>
      </trkpt>
      <trkpt lat="43.16109" lon="-0.24034">
        <ele>269.1</ele>
        <time>2012-11-17T16:34:25Z</time>
      </trkpt>
      <trkpt lat="43.16098" lon="-0.2402">
        <ele>269.4</ele>
        <time>2012-11-17T16:34:30Z</time>
      </trkpt>
      <trkpt lat="43.1609" lon="-0.24005">
        <ele>269.1</ele>
        <time>2012-11-17T16:34:35Z</time>
      </trkpt>
      <trkpt lat="43.16081" lon="-0.23986">
        <ele>269</ele>
        <time>2012-11-17T16:34:40Z</time>
      </trkpt>
      <trkpt lat="43.1607" lon="-0.23969">
        <ele>269</ele>
        <time>2012-11-17T16:34:45Z</time>
      </trkpt>
      <trkpt lat="43.16058" lon="-0.23955">
        <ele>269</ele>
        <time>2012-11-17T16:34:50Z</time>
      </trkpt>
      <trkpt lat="43.16045" lon="-0.23942">
        <ele>269</ele>
        <time>2012-11-17T16:34:55Z</time>
      </trkpt>
      <trkpt lat="43.16033" lon="-0.23933">
        <ele>269.3</ele>
        <time>2012-11-17T16:35:00Z</time>
      </trkpt>
      <trkpt lat="43.1602" lon="-0.23926">
        <ele>269.8</ele>
        <time>2012-11-17T16:35:05Z</time>
      </trkpt>
      <trkpt lat="43.16007" lon="-0.23922">
        <ele>270</ele>
        <time>2012-11-17T16:35:10Z</time>
      </trkpt>
      <trkpt lat="43.15991" lon="-0.23919">
        <ele>270.3</ele>
        <time>2012-11-17T16:35:15Z</time>
      </trkpt>
      <trkpt lat="43.15975" lon="-0.23915">
        <ele>270.9</ele>
        <time>2012-11-17T16:35:20Z</time>
      </trkpt>
      <trkpt lat="43.1596" lon="-0.23906">
        <ele>271</ele>
        <time>2012-11-17T16:35:25Z</time>
      </trkpt>
      <trkpt lat="43.15955" lon="-0.23887">
        <ele>270.9</ele>
        <time>2012-11-17T16:35:30Z</time>
      </trkpt>
      <trkpt lat="43.15962" lon="-0.23871">
        <ele>270</ele>
        <time>2012-11-17T16:35:35Z</time>
      </trkpt>
      <trkpt lat="43.15968" lon="-0.23856">
        <ele>269.3</ele>
        <time>2012-11-17T16:35:40Z</time>
      </trkpt>
      <trkpt lat="43.15977" lon="-0.23838">
        <ele>269.8</ele>
        <time>2012-11-17T16:35:45Z</time>
      </trkpt>
      <trkpt lat="43.15986" lon="-0.23819">
        <ele>270.5</ele>
        <time>2012-11-17T16:35:50Z</time>
      </trkpt>
      <trkpt lat="43.15991" lon="-0.23805">
        <ele>271</ele>
        <time>2012-11-17T16:35:55Z</time>
      </trkpt>
      <trkpt lat="43.15996" lon="-0.23784">
        <ele>271</ele>
        <time>2012-11-17T16:36:00Z</time>
      </trkpt>
      <trkpt lat="43.16001" lon="-0.23767">
        <ele>271</ele>
        <time>2012-11-17T16:36:05Z</time>
      </trkpt>
      <trkpt lat="43.16006" lon="-0.23752">
        <ele>270.8</ele>
        <time>2012-11-17T16:36:10Z</time>
      </trkpt>
      <trkpt lat="43.16008" lon="-0.23737">
        <ele>270.7</ele>
        <time>2012-11-17T16:36:15Z</time>
      </trkpt>
      <trkpt lat="43.16012" lon="-0.23721">
        <ele>270.6</ele>
        <time>2012-11-17T16:36:20Z</time>
      </trkpt>
      <trkpt lat="43.16016" lon="-0.23711">
        <ele>270.7</ele>
        <time>2012-11-17T16:36:25Z</time>
      </trkpt>
      <trkpt lat="43.16019" lon="-0.23702">
        <ele>270.8</ele>
        <time>2012-11-17T16:36:30Z</time>
      </trkpt>
      <trkpt lat="43.16022" lon="-0.23695">
        <ele>271</ele>
        <time>2012-11-17T16:36:35Z</time>
      </trkpt>
      <trkpt lat="43.16023" lon="-0.23689">
        <ele>271</ele>
        <time>2012-11-17T16:36:40Z</time>
      </trkpt>
      <trkpt lat="43.16026" lon="-0.23682">
        <ele>271</ele>
        <time>2012-11-17T16:36:45Z</time>
      </trkpt>
      <trkpt lat="43.16028" lon="-0.23677">
        <ele>271</ele>
        <time>2012-11-17T16:36:50Z</time>
      </trkpt>
      <trkpt lat="43.1603" lon="-0.23668">
        <ele>271</ele>
        <time>2012-11-17T16:36:55Z</time>
      </trkpt>
      <trkpt lat="43.16031" lon="-0.23661">
        <ele>271.2</ele>
        <time>2012-11-17T16:37:00Z</time>
      </trkpt>
      <trkpt lat="43.16032" lon="-0.23654">
        <ele>271.5</ele>
        <time>2012-11-17T16:37:05Z</time>
      </trkpt>
      <trkpt lat="43.16036" lon="-0.23651">
        <ele>271.6</ele>
        <time>2012-11-17T16:37:10Z</time>
      </trkpt>
      <trkpt lat="43.16037" lon="-0.23651">
        <ele>271.6</ele>
        <time>2012-11-17T16:37:15Z</time>
      </trkpt>
      <trkpt lat="43.16039" lon="-0.23651">
        <ele>271.6</ele>
        <time>2012-11-17T16:37:20Z</time>
      </trkpt>
      <trkpt lat="43.1604" lon="-0.23651">
        <ele>271.6</ele>
        <time>2012-11-17T16:37:25Z</time>
      </trkpt>
      <trkpt lat="43.1604" lon="-0.23651">
        <ele>271.6</ele>
        <time>2012-11-17T16:37:30Z</time>
      </trkpt>
      <trkpt lat="43.16036" lon="-0.23644">
        <ele>271.8</ele>
        <time>2012-11-17T16:37:35Z</time>
      </trkpt>
      <trkpt lat="43.16031" lon="-0.23639">
        <ele>272</ele>
        <time>2012-11-17T16:37:40Z</time>
      </trkpt>
      <trkpt lat="43.16031" lon="-0.2364">
        <ele>271.9</ele>
        <time>2012-11-17T16:37:45Z</time>
      </trkpt>
      <trkpt lat="43.16031" lon="-0.23643">
        <ele>271.9</ele>
        <time>2012-11-17T16:37:50Z</time>
      </trkpt>
    </trkseg>
  </trk>
</gpx>